SWR282 LSZH-FAOR
Flight info
| Callsign | SWR282 |
|---|---|
| Flight time | 10h 44m |
| Altitude | 31000 |
| Route | VEBIT T53 GERSA DCT SOSON DCT ODINA DCT PIDAD DCT TALEP DCT VAREK DCT ERPIN DCT ETOIL DCT CIRTA UM2 NAGAH/N0479F330 UM2 DJA UB730 DIR UG727 MIU UM998 OXIMU/N0483F350 UM998 VUE/N0475F370 UM998 IBRIT UT941 RUDAS UQ25 ITROL UQ44 AVAGO AVAGO1C |
| Aircraft | A343/H-SDE2E3FGHIJ4J5M1P2RWXYZ/LB1D1 |
Departure
| Time | 2026-04-25 20:46 |
|---|---|
| Airport | Zürich Airport (LSZH) |
Arrival
| Time | 2026-04-26 07:31 |
|---|---|
| Airport | O.R. Tambo International Airport (FAOR) |
| Time | Latitude | Longitude | Altitude | Speed | Heading |
|---|---|---|---|---|---|
| 2026-04-25 19:32 | 47.46178 | 8.55492 | 1410 ft | 0 kts | 186° |
| 2026-04-25 20:33 | 47.46198 | 8.55495 | 1392 ft | 4 kts | 186° |
| 2026-04-25 20:33 | 47.46224 | 8.55500 | 1403 ft | 4 kts | 185° |
| 2026-04-25 20:33 | 47.46233 | 8.55501 | 1405 ft | 3 kts | 185° |
| 2026-04-25 20:34 | 47.46256 | 8.55527 | 1410 ft | 4 kts | 277° |
| 2026-04-25 20:34 | 47.46251 | 8.55566 | 1411 ft | 4 kts | 280° |
| 2026-04-25 20:34 | 47.46250 | 8.55580 | 1410 ft | 0 kts | 276° |
| 2026-04-25 20:38 | 47.46250 | 8.55579 | 1410 ft | 0 kts | 276° |
| 2026-04-25 20:38 | 47.46251 | 8.55563 | 1411 ft | 3 kts | 276° |
| 2026-04-25 20:38 | 47.46254 | 8.55520 | 1410 ft | 6 kts | 276° |
| 2026-04-25 20:38 | 47.46260 | 8.55435 | 1403 ft | 10 kts | 276° |
| 2026-04-25 20:39 | 47.46269 | 8.55316 | 1407 ft | 13 kts | 276° |
| 2026-04-25 20:39 | 47.46279 | 8.55174 | 1400 ft | 15 kts | 276° |
| 2026-04-25 20:39 | 47.46290 | 8.55021 | 1398 ft | 15 kts | 276° |
| 2026-04-25 20:39 | 47.46293 | 8.54969 | 1401 ft | 15 kts | 276° |
| 2026-04-25 20:40 | 47.46273 | 8.54784 | 1387 ft | 9 kts | 201° |
| 2026-04-25 20:40 | 47.46223 | 8.54802 | 1403 ft | 7 kts | 156° |
| 2026-04-25 20:40 | 47.46156 | 8.54848 | 1402 ft | 14 kts | 155° |
| 2026-04-25 20:40 | 47.46061 | 8.54913 | 1398 ft | 15 kts | 155° |
| 2026-04-25 20:41 | 47.45953 | 8.54986 | 1403 ft | 19 kts | 155° |
| 2026-04-25 20:41 | 47.45822 | 8.55077 | 1404 ft | 23 kts | 155° |
| 2026-04-25 20:41 | 47.45664 | 8.55188 | 1408 ft | 26 kts | 154° |
| 2026-04-25 20:41 | 47.45503 | 8.55300 | 1411 ft | 25 kts | 155° |
| 2026-04-25 20:42 | 47.45399 | 8.55372 | 1413 ft | 25 kts | 155° |
| 2026-04-25 20:42 | 47.45234 | 8.55484 | 1414 ft | 27 kts | 155° |
| 2026-04-25 20:42 | 47.45066 | 8.55600 | 1408 ft | 26 kts | 155° |
| 2026-04-25 20:42 | 47.44904 | 8.55709 | 1409 ft | 26 kts | 155° |
| 2026-04-25 20:43 | 47.44753 | 8.55812 | 1408 ft | 17 kts | 155° |
| 2026-04-25 20:43 | 47.44663 | 8.55864 | 1403 ft | 12 kts | 174° |
| 2026-04-25 20:43 | 47.44613 | 8.55800 | 1406 ft | 9 kts | 243° |
| 2026-04-25 20:43 | 47.44584 | 8.55713 | 1402 ft | 9 kts | 244° |
| 2026-04-25 20:44 | 47.44579 | 8.55657 | 1404 ft | 4 kts | 297° |
| 2026-04-25 20:44 | 47.44599 | 8.55641 | 1406 ft | 0 kts | 335° |
| 2026-04-25 20:45 | 47.44630 | 8.55620 | 1406 ft | 19 kts | 335° |
| 2026-04-25 20:45 | 47.44913 | 8.55426 | 1409 ft | 70 kts | 335° |
| 2026-04-25 20:45 | 47.45494 | 8.55023 | 1407 ft | 114 kts | 335° |
| 2026-04-25 20:46 | 47.46341 | 8.54442 | 1386 ft | 153 kts | 335° |
| 2026-04-25 20:46 | 47.47378 | 8.53731 | 1626 ft | 164 kts | 335° |
| 2026-04-25 20:46 | 47.48400 | 8.53022 | 2077 ft | 164 kts | 335° |
| 2026-04-25 20:46 | 47.49444 | 8.52282 | 2475 ft | 168 kts | 334° |
| 2026-04-25 20:47 | 47.50497 | 8.51515 | 2911 ft | 168 kts | 335° |
| 2026-04-25 20:47 | 47.51537 | 8.50749 | 3282 ft | 167 kts | 335° |
| 2026-04-25 20:47 | 47.52526 | 8.49814 | 3435 ft | 171 kts | 322° |
| 2026-04-25 20:47 | 47.53304 | 8.48456 | 3584 ft | 176 kts | 303° |
| 2026-04-25 20:48 | 47.53725 | 8.46737 | 3779 ft | 180 kts | 281° |
| 2026-04-25 20:48 | 47.53703 | 8.44879 | 3982 ft | 183 kts | 259° |
| 2026-04-25 20:48 | 47.53275 | 8.43105 | 4179 ft | 183 kts | 246° |
| 2026-04-25 20:48 | 47.52716 | 8.41413 | 4380 ft | 184 kts | 244° |
| 2026-04-25 20:49 | 47.52119 | 8.39714 | 4532 ft | 190 kts | 240° |
| 2026-04-25 20:49 | 47.51150 | 8.38353 | 4582 ft | 199 kts | 203° |
| 2026-04-25 20:49 | 47.49798 | 8.37782 | 4681 ft | 207 kts | 191° |
| 2026-04-25 20:49 | 47.48356 | 8.37376 | 4811 ft | 215 kts | 191° |
| 2026-04-25 20:50 | 47.46872 | 8.36958 | 4941 ft | 225 kts | 192° |
| 2026-04-25 20:50 | 47.45265 | 8.36493 | 4997 ft | 240 kts | 192° |
| 2026-04-25 20:50 | 47.43620 | 8.36006 | 5161 ft | 250 kts | 192° |
| 2026-04-25 20:50 | 47.41877 | 8.35483 | 5357 ft | 261 kts | 192° |
| 2026-04-25 20:51 | 47.40097 | 8.34781 | 5535 ft | 271 kts | 204° |
| 2026-04-25 20:51 | 47.38551 | 8.33149 | 5712 ft | 279 kts | 232° |
| 2026-04-25 20:51 | 47.37503 | 8.30689 | 5939 ft | 288 kts | 243° |
| 2026-04-25 20:51 | 47.36576 | 8.28029 | 6270 ft | 294 kts | 244° |
| 2026-04-25 20:52 | 47.35639 | 8.25331 | 6694 ft | 297 kts | 243° |
| 2026-04-25 20:52 | 47.35013 | 8.23542 | 6972 ft | 298 kts | 244° |
| 2026-04-25 20:52 | 47.33729 | 8.19894 | 7532 ft | 301 kts | 243° |
| 2026-04-25 20:52 | 47.32757 | 8.17157 | 7958 ft | 303 kts | 243° |
| 2026-04-25 20:53 | 47.31775 | 8.14397 | 8363 ft | 305 kts | 243° |
| 2026-04-25 20:53 | 47.30777 | 8.11623 | 8782 ft | 307 kts | 241° |
| 2026-04-25 20:53 | 47.29519 | 8.09070 | 9167 ft | 311 kts | 225° |
| 2026-04-25 20:53 | 47.27717 | 8.07304 | 9555 ft | 315 kts | 201° |
| 2026-04-25 20:54 | 47.25565 | 8.06747 | 9911 ft | 319 kts | 178° |
| 2026-04-25 20:54 | 47.23404 | 8.07499 | 10262 ft | 323 kts | 154° |
| 2026-04-25 20:54 | 47.21590 | 8.09459 | 10568 ft | 327 kts | 131° |
| 2026-04-25 20:54 | 47.20382 | 8.12280 | 10893 ft | 329 kts | 109° |
| 2026-04-25 20:55 | 47.19777 | 8.15523 | 11258 ft | 330 kts | 100° |
| 2026-04-25 20:55 | 47.19336 | 8.18840 | 11597 ft | 332 kts | 99° |
| 2026-04-25 20:55 | 47.18941 | 8.22198 | 11948 ft | 334 kts | 98° |
| 2026-04-25 20:55 | 47.18596 | 8.25588 | 12309 ft | 336 kts | 97° |
| 2026-04-25 20:56 | 47.18288 | 8.29000 | 12655 ft | 338 kts | 96° |
| 2026-04-25 20:56 | 47.18001 | 8.32447 | 12989 ft | 341 kts | 95° |
| 2026-04-25 20:56 | 47.17722 | 8.35910 | 13349 ft | 342 kts | 95° |
| 2026-04-25 20:56 | 47.17443 | 8.39394 | 13709 ft | 344 kts | 95° |
| 2026-04-25 20:57 | 47.17122 | 8.42888 | 14030 ft | 347 kts | 100° |
| 2026-04-25 20:57 | 47.16380 | 8.46278 | 14319 ft | 352 kts | 114° |
| 2026-04-25 20:57 | 47.15005 | 8.49295 | 14416 ft | 362 kts | 134° |
| 2026-04-25 20:57 | 47.12948 | 8.51455 | 14523 ft | 369 kts | 156° |
| 2026-04-25 20:58 | 47.10533 | 8.52646 | 14678 ft | 375 kts | 169° |
| 2026-04-25 20:58 | 47.07936 | 8.53248 | 14822 ft | 381 kts | 175° |
| 2026-04-25 20:58 | 47.05266 | 8.53552 | 14957 ft | 388 kts | 178° |
| 2026-04-25 20:58 | 47.02547 | 8.53764 | 15099 ft | 395 kts | 178° |
| 2026-04-25 20:59 | 46.99780 | 8.53995 | 15247 ft | 401 kts | 177° |
| 2026-04-25 20:59 | 46.96970 | 8.54282 | 15371 ft | 408 kts | 176° |
| 2026-04-25 20:59 | 46.94117 | 8.54628 | 15567 ft | 413 kts | 175° |
| 2026-04-25 20:59 | 46.91242 | 8.55017 | 15789 ft | 416 kts | 175° |
| 2026-04-25 21:00 | 46.88351 | 8.55430 | 15997 ft | 420 kts | 175° |
| 2026-04-25 21:00 | 46.87369 | 8.55573 | 16077 ft | 421 kts | 175° |
| 2026-04-25 21:00 | 46.79547 | 8.56713 | 16782 ft | 428 kts | 175° |
| 2026-04-25 21:01 | 46.76575 | 8.57142 | 17090 ft | 430 kts | 175° |
| 2026-04-25 21:01 | 46.73589 | 8.57572 | 17353 ft | 432 kts | 175° |
| 2026-04-25 21:01 | 46.70592 | 8.58003 | 17650 ft | 433 kts | 175° |
| 2026-04-25 21:01 | 46.67587 | 8.58434 | 17879 ft | 437 kts | 175° |
| 2026-04-25 21:02 | 46.64545 | 8.58866 | 18115 ft | 441 kts | 175° |
| 2026-04-25 21:02 | 46.61485 | 8.59299 | 18421 ft | 443 kts | 175° |
| 2026-04-25 21:02 | 46.58402 | 8.59739 | 18686 ft | 446 kts | 175° |
| 2026-04-25 21:02 | 46.55339 | 8.60176 | 18972 ft | 448 kts | 175° |
| 2026-04-25 21:03 | 46.52231 | 8.60615 | 19279 ft | 449 kts | 175° |
| 2026-04-25 21:03 | 46.49118 | 8.61054 | 19574 ft | 451 kts | 175° |
| 2026-04-25 21:03 | 46.45989 | 8.61497 | 19862 ft | 453 kts | 175° |
| 2026-04-25 21:03 | 46.42837 | 8.61942 | 20103 ft | 455 kts | 175° |
| 2026-04-25 21:04 | 46.39686 | 8.62387 | 20323 ft | 457 kts | 175° |
| 2026-04-25 21:04 | 46.36512 | 8.62834 | 20638 ft | 458 kts | 175° |
| 2026-04-25 21:04 | 46.33348 | 8.63281 | 21008 ft | 458 kts | 175° |
| 2026-04-25 21:04 | 46.30158 | 8.63728 | 21170 ft | 462 kts | 175° |
| 2026-04-25 21:05 | 46.26946 | 8.64178 | 21399 ft | 464 kts | 175° |
| 2026-04-25 21:05 | 46.23726 | 8.64630 | 21676 ft | 466 kts | 175° |
| 2026-04-25 21:05 | 46.20494 | 8.65084 | 21920 ft | 467 kts | 175° |
| 2026-04-25 21:05 | 46.17252 | 8.65539 | 22171 ft | 469 kts | 175° |
| 2026-04-25 21:06 | 46.14015 | 8.65993 | 22484 ft | 469 kts | 175° |
| 2026-04-25 21:06 | 46.10753 | 8.66450 | 22661 ft | 472 kts | 175° |
| 2026-04-25 21:06 | 46.07472 | 8.66828 | 22875 ft | 474 kts | 179° |
| 2026-04-25 21:06 | 46.05286 | 8.66930 | 23017 ft | 474 kts | 180° |
| 2026-04-25 21:07 | 46.00863 | 8.66946 | 23260 ft | 477 kts | 182° |
| 2026-04-25 21:07 | 45.97543 | 8.66917 | 23503 ft | 477 kts | 181° |
| 2026-04-25 21:07 | 45.94224 | 8.66942 | 23748 ft | 478 kts | 180° |
| 2026-04-25 21:07 | 45.90890 | 8.67009 | 23954 ft | 480 kts | 180° |
| 2026-04-25 21:08 | 45.87542 | 8.67090 | 24154 ft | 481 kts | 180° |
| 2026-04-25 21:08 | 45.84195 | 8.67171 | 24368 ft | 481 kts | 180° |
| 2026-04-25 21:08 | 45.80843 | 8.67246 | 24587 ft | 481 kts | 180° |
| 2026-04-25 21:08 | 45.77500 | 8.67314 | 24803 ft | 482 kts | 180° |
| 2026-04-25 21:09 | 45.70727 | 8.67438 | 25062 ft | 488 kts | 181° |
| 2026-04-25 21:09 | 45.67383 | 8.67496 | 25300 ft | 488 kts | 181° |
| 2026-04-25 21:09 | 45.63981 | 8.67555 | 25489 ft | 489 kts | 181° |
| 2026-04-25 21:10 | 45.60580 | 8.67613 | 25739 ft | 488 kts | 181° |
| 2026-04-25 21:10 | 45.57182 | 8.67672 | 25957 ft | 489 kts | 181° |
| 2026-04-25 21:10 | 45.53777 | 8.67731 | 26137 ft | 490 kts | 181° |
| 2026-04-25 21:10 | 45.50367 | 8.67790 | 26323 ft | 490 kts | 181° |
| 2026-04-25 21:11 | 45.46959 | 8.67850 | 26503 ft | 491 kts | 181° |
| 2026-04-25 21:11 | 45.43530 | 8.67909 | 26708 ft | 492 kts | 181° |
| 2026-04-25 21:11 | 45.40116 | 8.67969 | 26928 ft | 491 kts | 181° |
| 2026-04-25 21:11 | 45.36696 | 8.68028 | 27122 ft | 492 kts | 181° |
| 2026-04-25 21:12 | 45.33262 | 8.68088 | 27285 ft | 493 kts | 181° |
| 2026-04-25 21:12 | 45.29836 | 8.68147 | 27455 ft | 494 kts | 181° |
| 2026-04-25 21:12 | 45.26395 | 8.68206 | 27621 ft | 495 kts | 181° |
| 2026-04-25 21:12 | 45.24110 | 8.68246 | 27724 ft | 495 kts | 180° |
| 2026-04-25 21:13 | 45.19502 | 8.68325 | 28001 ft | 495 kts | 180° |
| 2026-04-25 21:13 | 45.16053 | 8.68385 | 28175 ft | 496 kts | 180° |
| 2026-04-25 21:13 | 45.12596 | 8.68444 | 28330 ft | 497 kts | 180° |
| 2026-04-25 21:13 | 45.09132 | 8.68503 | 28481 ft | 498 kts | 180° |
| 2026-04-25 21:14 | 45.05670 | 8.68563 | 28661 ft | 498 kts | 180° |
| 2026-04-25 21:14 | 45.02208 | 8.68622 | 28943 ft | 496 kts | 180° |
| 2026-04-25 21:14 | 44.98761 | 8.68682 | 29228 ft | 494 kts | 180° |
| 2026-04-25 21:14 | 44.95322 | 8.68741 | 29454 ft | 494 kts | 180° |
| 2026-04-25 21:15 | 44.93044 | 8.68780 | 29598 ft | 493 kts | 180° |
| 2026-04-25 21:15 | 44.88456 | 8.68858 | 29890 ft | 493 kts | 180° |
| 2026-04-25 21:15 | 44.85029 | 8.68916 | 30099 ft | 492 kts | 180° |
| 2026-04-25 21:15 | 44.81611 | 8.68974 | 30333 ft | 490 kts | 180° |
| 2026-04-25 21:16 | 44.78209 | 8.69032 | 30517 ft | 490 kts | 180° |
| 2026-04-25 21:16 | 44.74796 | 8.69090 | 30660 ft | 489 kts | 180° |
| 2026-04-25 21:16 | 44.71398 | 8.69148 | 30837 ft | 489 kts | 180° |
| 2026-04-25 21:16 | 44.67989 | 8.69205 | 30999 ft | 489 kts | 180° |
| 2026-04-25 21:17 | 44.61201 | 8.69320 | 31094 ft | 487 kts | 180° |
| 2026-04-25 21:17 | 44.54437 | 8.69434 | 31097 ft | 485 kts | 180° |
| 2026-04-25 21:18 | 44.47681 | 8.69548 | 31102 ft | 485 kts | 180° |
| 2026-04-25 21:18 | 44.40967 | 8.69659 | 31103 ft | 486 kts | 180° |
| 2026-04-25 21:19 | 44.34210 | 8.69772 | 31103 ft | 486 kts | 180° |
| 2026-04-25 21:19 | 44.27458 | 8.69885 | 31104 ft | 485 kts | 180° |
| 2026-04-25 21:20 | 44.22938 | 8.69961 | 31108 ft | 484 kts | 180° |
| 2026-04-25 21:20 | 44.13979 | 8.70110 | 31108 ft | 484 kts | 180° |
| 2026-04-25 21:21 | 44.07248 | 8.70222 | 31111 ft | 484 kts | 180° |
| 2026-04-25 21:21 | 44.00515 | 8.70333 | 31113 ft | 484 kts | 181° |
| 2026-04-25 21:22 | 43.93782 | 8.70444 | 31116 ft | 484 kts | 180° |
| 2026-04-25 21:22 | 43.87057 | 8.70555 | 31113 ft | 484 kts | 181° |
| 2026-04-25 21:23 | 43.80324 | 8.70666 | 31118 ft | 484 kts | 181° |
| 2026-04-25 21:23 | 43.73590 | 8.70777 | 31119 ft | 484 kts | 181° |
| 2026-04-25 21:24 | 43.66878 | 8.70436 | 31118 ft | 482 kts | 191° |
| 2026-04-25 21:24 | 43.63662 | 8.69239 | 31122 ft | 477 kts | 206° |
| 2026-04-25 21:24 | 43.60742 | 8.67109 | 31113 ft | 475 kts | 209° |
| 2026-04-25 21:25 | 43.54540 | 8.63880 | 31121 ft | 479 kts | 198° |
| 2026-04-25 21:25 | 43.48085 | 8.61486 | 31123 ft | 481 kts | 196° |
| 2026-04-25 21:26 | 43.41606 | 8.59189 | 31124 ft | 481 kts | 196° |
| 2026-04-25 21:26 | 43.35145 | 8.56805 | 31124 ft | 481 kts | 197° |
| 2026-04-25 21:27 | 43.28695 | 8.54372 | 31121 ft | 481 kts | 197° |
| 2026-04-25 21:27 | 43.22285 | 8.51949 | 31122 ft | 481 kts | 197° |
| 2026-04-25 21:28 | 43.15828 | 8.49517 | 31127 ft | 481 kts | 197° |
| 2026-04-25 21:28 | 43.10422 | 8.47486 | 31133 ft | 481 kts | 197° |
| 2026-04-25 21:29 | 43.02911 | 8.44673 | 31120 ft | 482 kts | 197° |
| 2026-04-25 21:29 | 42.97485 | 8.42646 | 31121 ft | 482 kts | 197° |
| 2026-04-25 21:30 | 42.91013 | 8.40232 | 31126 ft | 482 kts | 196° |
| 2026-04-25 21:30 | 42.85623 | 8.38228 | 31130 ft | 483 kts | 196° |
| 2026-04-25 21:31 | 42.78078 | 8.35427 | 31125 ft | 484 kts | 196° |
| 2026-04-25 21:31 | 42.71585 | 8.33019 | 31135 ft | 483 kts | 196° |
| 2026-04-25 21:32 | 42.65089 | 8.30620 | 31136 ft | 484 kts | 196° |
| 2026-04-25 21:32 | 42.58587 | 8.28223 | 31130 ft | 484 kts | 196° |
| 2026-04-25 21:33 | 42.52076 | 8.25822 | 31139 ft | 484 kts | 196° |
| 2026-04-25 21:33 | 42.45572 | 8.23431 | 31137 ft | 484 kts | 196° |
| 2026-04-25 21:34 | 42.39061 | 8.21044 | 31137 ft | 484 kts | 196° |
| 2026-04-25 21:34 | 42.32556 | 8.18664 | 31135 ft | 484 kts | 196° |
| 2026-04-25 21:35 | 42.26094 | 8.16307 | 31134 ft | 484 kts | 195° |
| 2026-04-25 21:35 | 42.19578 | 8.13931 | 31137 ft | 484 kts | 195° |
| 2026-04-25 21:36 | 42.13075 | 8.11568 | 31132 ft | 484 kts | 195° |
| 2026-04-25 21:36 | 42.06562 | 8.09208 | 31149 ft | 485 kts | 195° |
| 2026-04-25 21:37 | 42.01150 | 8.07249 | 31142 ft | 485 kts | 195° |
| 2026-04-25 21:37 | 41.93524 | 8.04494 | 31137 ft | 485 kts | 195° |
| 2026-04-25 21:38 | 41.87002 | 8.02146 | 31149 ft | 485 kts | 195° |
| 2026-04-25 21:38 | 41.80478 | 7.99803 | 31148 ft | 485 kts | 195° |
| 2026-04-25 21:39 | 41.73955 | 7.97459 | 31143 ft | 485 kts | 195° |
| 2026-04-25 21:39 | 41.67427 | 7.95119 | 31147 ft | 486 kts | 195° |
| 2026-04-25 21:40 | 41.60928 | 7.92797 | 31147 ft | 487 kts | 195° |
| 2026-04-25 21:40 | 41.54382 | 7.90463 | 31145 ft | 487 kts | 195° |
| 2026-04-25 21:41 | 41.47830 | 7.88127 | 31145 ft | 487 kts | 194° |
| 2026-04-25 21:41 | 41.41283 | 7.85807 | 31143 ft | 488 kts | 194° |
| 2026-04-25 21:42 | 41.34717 | 7.83482 | 31148 ft | 488 kts | 194° |
| 2026-04-25 21:42 | 41.28159 | 7.81161 | 31145 ft | 488 kts | 194° |
| 2026-04-25 21:43 | 41.21596 | 7.78844 | 31149 ft | 488 kts | 194° |
| 2026-04-25 21:43 | 41.15019 | 7.76529 | 31157 ft | 488 kts | 194° |
| 2026-04-25 21:44 | 41.08457 | 7.74222 | 31158 ft | 488 kts | 194° |
| 2026-04-25 21:45 | 40.98636 | 7.70780 | 31140 ft | 489 kts | 194° |
| 2026-04-25 21:45 | 40.92052 | 7.68478 | 31153 ft | 489 kts | 194° |
| 2026-04-25 21:46 | 40.85467 | 7.66181 | 31147 ft | 489 kts | 194° |
| 2026-04-25 21:46 | 40.78877 | 7.63886 | 31140 ft | 490 kts | 194° |
| 2026-04-25 21:47 | 40.72286 | 7.61596 | 31146 ft | 490 kts | 194° |
| 2026-04-25 21:47 | 40.65695 | 7.59311 | 31153 ft | 490 kts | 194° |
| 2026-04-25 21:48 | 40.59105 | 7.57034 | 31156 ft | 490 kts | 194° |
| 2026-04-25 21:48 | 40.52516 | 7.54760 | 31156 ft | 489 kts | 194° |
| 2026-04-25 21:49 | 40.45912 | 7.52481 | 31159 ft | 490 kts | 194° |
| 2026-04-25 21:49 | 40.39323 | 7.50213 | 31148 ft | 489 kts | 194° |
| 2026-04-25 21:50 | 40.32734 | 7.47951 | 31154 ft | 489 kts | 194° |
| 2026-04-25 21:50 | 40.26144 | 7.45693 | 31149 ft | 490 kts | 194° |
| 2026-04-25 21:51 | 40.19596 | 7.43455 | 31145 ft | 489 kts | 194° |
| 2026-04-25 21:51 | 40.13012 | 7.41209 | 31146 ft | 489 kts | 194° |
| 2026-04-25 21:52 | 40.06437 | 7.38970 | 31148 ft | 489 kts | 194° |
| 2026-04-25 21:52 | 39.99855 | 7.36733 | 31153 ft | 489 kts | 195° |
| 2026-04-25 21:53 | 39.93273 | 7.34503 | 31147 ft | 488 kts | 195° |
| 2026-04-25 21:53 | 39.86703 | 7.32280 | 31148 ft | 488 kts | 195° |
| 2026-04-25 21:54 | 39.80134 | 7.30058 | 31144 ft | 488 kts | 195° |
| 2026-04-25 21:54 | 39.73571 | 7.27845 | 31144 ft | 486 kts | 195° |
| 2026-04-25 21:55 | 39.67023 | 7.25641 | 31144 ft | 486 kts | 195° |
| 2026-04-25 21:55 | 39.60484 | 7.23446 | 31140 ft | 486 kts | 195° |
| 2026-04-25 21:56 | 39.53940 | 7.21254 | 31141 ft | 485 kts | 195° |
| 2026-04-25 21:56 | 39.47412 | 7.19071 | 31137 ft | 484 kts | 195° |
| 2026-04-25 21:57 | 39.40890 | 7.16892 | 31145 ft | 484 kts | 195° |
| 2026-04-25 21:57 | 39.34375 | 7.14721 | 31143 ft | 484 kts | 195° |
| 2026-04-25 21:58 | 39.27862 | 7.12557 | 31143 ft | 482 kts | 195° |
| 2026-04-25 21:58 | 39.21375 | 7.10403 | 31138 ft | 481 kts | 195° |
| 2026-04-25 21:59 | 39.14889 | 7.08253 | 31136 ft | 481 kts | 195° |
| 2026-04-25 21:59 | 39.08398 | 7.06107 | 31138 ft | 480 kts | 195° |
| 2026-04-25 22:00 | 38.98655 | 7.03178 | 31139 ft | 480 kts | 190° |
| 2026-04-25 22:00 | 38.92070 | 7.02000 | 31142 ft | 481 kts | 188° |
| 2026-04-25 22:01 | 38.85434 | 7.00938 | 31137 ft | 479 kts | 188° |
| 2026-04-25 22:01 | 38.79937 | 7.00068 | 31135 ft | 478 kts | 188° |
| 2026-04-25 22:02 | 38.72221 | 6.98827 | 31137 ft | 478 kts | 189° |
| 2026-04-25 22:02 | 38.65626 | 6.97761 | 31129 ft | 478 kts | 189° |
| 2026-04-25 22:03 | 38.59044 | 6.96702 | 31126 ft | 476 kts | 189° |
| 2026-04-25 22:03 | 38.52475 | 6.95643 | 31134 ft | 476 kts | 189° |
| 2026-04-25 22:04 | 38.45907 | 6.94587 | 31132 ft | 476 kts | 189° |
| 2026-04-25 22:04 | 38.39346 | 6.93538 | 31128 ft | 474 kts | 189° |
| 2026-04-25 22:05 | 38.32814 | 6.92494 | 31129 ft | 473 kts | 189° |
| 2026-04-25 22:05 | 38.26280 | 6.91448 | 31129 ft | 473 kts | 189° |
| 2026-04-25 22:06 | 38.19760 | 6.90407 | 31129 ft | 473 kts | 189° |
| 2026-04-25 22:06 | 38.13231 | 6.89367 | 31129 ft | 473 kts | 189° |
| 2026-04-25 22:07 | 38.07803 | 6.88504 | 31130 ft | 473 kts | 189° |
| 2026-04-25 22:07 | 38.00217 | 6.87301 | 31127 ft | 473 kts | 189° |
| 2026-04-25 22:08 | 37.93691 | 6.86268 | 31124 ft | 472 kts | 189° |
| 2026-04-25 22:08 | 37.87179 | 6.85239 | 31120 ft | 471 kts | 189° |
| 2026-04-25 22:09 | 37.80669 | 6.84212 | 31123 ft | 471 kts | 189° |
| 2026-04-25 22:09 | 37.74162 | 6.83187 | 31117 ft | 471 kts | 188° |
| 2026-04-25 22:10 | 37.67649 | 6.82162 | 31118 ft | 472 kts | 188° |
| 2026-04-25 22:10 | 37.61127 | 6.81139 | 31112 ft | 472 kts | 188° |
| 2026-04-25 22:11 | 37.54598 | 6.80117 | 31114 ft | 472 kts | 188° |
| 2026-04-25 22:11 | 37.48079 | 6.79098 | 31110 ft | 471 kts | 188° |
| 2026-04-25 22:12 | 37.41636 | 6.78092 | 31115 ft | 469 kts | 188° |
| 2026-04-25 22:12 | 37.37306 | 6.77417 | 31112 ft | 469 kts | 188° |
| 2026-04-25 22:13 | 37.28679 | 6.76074 | 31109 ft | 469 kts | 188° |
| 2026-04-25 22:13 | 37.22198 | 6.75067 | 31107 ft | 470 kts | 188° |
| 2026-04-25 22:14 | 37.15717 | 6.74063 | 31108 ft | 470 kts | 188° |
| 2026-04-25 22:14 | 37.09221 | 6.73058 | 31108 ft | 470 kts | 188° |
| 2026-04-25 22:15 | 37.02733 | 6.72055 | 31107 ft | 470 kts | 187° |
| 2026-04-25 22:16 | 36.93014 | 6.70557 | 31108 ft | 469 kts | 187° |
| 2026-04-25 22:16 | 36.86532 | 6.69560 | 31107 ft | 469 kts | 187° |
| 2026-04-25 22:17 | 36.81142 | 6.68733 | 31106 ft | 469 kts | 187° |
| 2026-04-25 22:17 | 36.74664 | 6.67740 | 31107 ft | 468 kts | 187° |
| 2026-04-25 22:18 | 36.68201 | 6.66750 | 31107 ft | 468 kts | 187° |
| 2026-04-25 22:18 | 36.61741 | 6.65762 | 31109 ft | 468 kts | 187° |
| 2026-04-25 22:19 | 36.55280 | 6.64777 | 31129 ft | 468 kts | 187° |
| 2026-04-25 22:19 | 36.48872 | 6.63804 | 31137 ft | 466 kts | 187° |
| 2026-04-25 22:20 | 36.42437 | 6.62827 | 31150 ft | 466 kts | 187° |
| 2026-04-25 22:20 | 36.36011 | 6.61847 | 31157 ft | 466 kts | 187° |
| 2026-04-25 22:21 | 36.29551 | 6.61238 | 31154 ft | 467 kts | 179° |
| 2026-04-25 22:21 | 36.23093 | 6.62362 | 31156 ft | 469 kts | 171° |
| 2026-04-25 22:22 | 36.16685 | 6.63984 | 31151 ft | 470 kts | 170° |
| 2026-04-25 22:22 | 36.10290 | 6.65669 | 31144 ft | 470 kts | 170° |
| 2026-04-25 22:23 | 36.03885 | 6.67329 | 31133 ft | 470 kts | 171° |
| 2026-04-25 22:23 | 35.97467 | 6.68972 | 31127 ft | 471 kts | 171° |
| 2026-04-25 22:24 | 35.91041 | 6.70602 | 31116 ft | 471 kts | 171° |
| 2026-04-25 22:24 | 35.84614 | 6.72227 | 31125 ft | 471 kts | 171° |
| 2026-04-25 22:25 | 35.78185 | 6.73853 | 31120 ft | 472 kts | 171° |
| 2026-04-25 22:25 | 35.71799 | 6.75467 | 31122 ft | 472 kts | 171° |
| 2026-04-25 22:26 | 35.65370 | 6.77090 | 31127 ft | 472 kts | 171° |
| 2026-04-25 22:26 | 35.58940 | 6.78710 | 31129 ft | 472 kts | 171° |
| 2026-04-25 22:27 | 35.52514 | 6.80328 | 31129 ft | 473 kts | 173° |
| 2026-04-25 22:27 | 35.46033 | 6.81955 | 31138 ft | 476 kts | 173° |
| 2026-04-25 22:28 | 35.39581 | 6.83572 | 31133 ft | 476 kts | 173° |
| 2026-04-25 22:28 | 35.33056 | 6.85205 | 31136 ft | 476 kts | 173° |
| 2026-04-25 22:29 | 35.26555 | 6.86828 | 31139 ft | 477 kts | 174° |
| 2026-04-25 22:29 | 35.20084 | 6.88442 | 31141 ft | 478 kts | 174° |
| 2026-04-25 22:30 | 35.10310 | 6.90878 | 31140 ft | 478 kts | 174° |
| 2026-04-25 22:30 | 35.04890 | 6.92225 | 31120 ft | 478 kts | 174° |
| 2026-04-25 22:31 | 34.97284 | 6.94112 | 31125 ft | 477 kts | 175° |
| 2026-04-25 22:31 | 34.90780 | 6.95725 | 31111 ft | 477 kts | 175° |
| 2026-04-25 22:32 | 34.84274 | 6.97331 | 31103 ft | 477 kts | 175° |
| 2026-04-25 22:32 | 34.77766 | 6.98939 | 31094 ft | 477 kts | 175° |
| 2026-04-25 22:33 | 34.71266 | 7.00585 | 31092 ft | 477 kts | 175° |
| 2026-04-25 22:33 | 34.64815 | 7.02226 | 31091 ft | 476 kts | 175° |
| 2026-04-25 22:34 | 34.58324 | 7.03869 | 31080 ft | 476 kts | 175° |
| 2026-04-25 22:34 | 34.51840 | 7.05504 | 31060 ft | 476 kts | 175° |
| 2026-04-25 22:35 | 34.45347 | 7.07138 | 31072 ft | 475 kts | 175° |
| 2026-04-25 22:35 | 34.38869 | 7.08766 | 31069 ft | 475 kts | 175° |
| 2026-04-25 22:36 | 34.32399 | 7.10388 | 31067 ft | 475 kts | 175° |
| 2026-04-25 22:36 | 34.25921 | 7.12011 | 31043 ft | 475 kts | 175° |
| 2026-04-25 22:37 | 34.19436 | 7.13632 | 31062 ft | 476 kts | 175° |
| 2026-04-25 22:37 | 34.12943 | 7.15252 | 31064 ft | 476 kts | 175° |
| 2026-04-25 22:38 | 34.06442 | 7.16874 | 31061 ft | 476 kts | 175° |
| 2026-04-25 22:38 | 33.99955 | 7.18489 | 31039 ft | 476 kts | 175° |
| 2026-04-25 22:39 | 33.93447 | 7.20105 | 31059 ft | 477 kts | 175° |
| 2026-04-25 22:39 | 33.86979 | 7.21710 | 31053 ft | 478 kts | 175° |
| 2026-04-25 22:40 | 33.80467 | 7.23324 | 31053 ft | 478 kts | 175° |
| 2026-04-25 22:40 | 33.73963 | 7.24933 | 31031 ft | 478 kts | 175° |
| 2026-04-25 22:41 | 33.67442 | 7.26543 | 31051 ft | 479 kts | 175° |
| 2026-04-25 22:41 | 33.60898 | 7.28156 | 31050 ft | 480 kts | 175° |
| 2026-04-25 22:42 | 33.54368 | 7.29764 | 31047 ft | 479 kts | 175° |
| 2026-04-25 22:42 | 33.47832 | 7.31372 | 31048 ft | 479 kts | 175° |
| 2026-04-25 22:43 | 33.41287 | 7.32977 | 31044 ft | 481 kts | 175° |
| 2026-04-25 22:43 | 33.34722 | 7.34586 | 31040 ft | 482 kts | 175° |
| 2026-04-25 22:44 | 33.28154 | 7.36194 | 31049 ft | 482 kts | 175° |
| 2026-04-25 22:44 | 33.21586 | 7.37800 | 31042 ft | 482 kts | 175° |
| 2026-04-25 22:45 | 33.15018 | 7.39402 | 31034 ft | 482 kts | 175° |
| 2026-04-25 22:45 | 33.08442 | 7.41003 | 31038 ft | 482 kts | 175° |
| 2026-04-25 22:46 | 33.01924 | 7.42588 | 31035 ft | 482 kts | 175° |
| 2026-04-25 22:46 | 32.95346 | 7.44185 | 31040 ft | 482 kts | 175° |
| 2026-04-25 22:47 | 32.88781 | 7.45777 | 31029 ft | 482 kts | 175° |
| 2026-04-25 22:47 | 32.82212 | 7.47368 | 31024 ft | 482 kts | 175° |
| 2026-04-25 22:48 | 32.75637 | 7.48958 | 31025 ft | 482 kts | 175° |
| 2026-04-25 22:48 | 32.69066 | 7.50543 | 31024 ft | 482 kts | 175° |
| 2026-04-25 22:49 | 32.62495 | 7.52126 | 31021 ft | 482 kts | 174° |
| 2026-04-25 22:49 | 32.55927 | 7.53707 | 31017 ft | 482 kts | 174° |
| 2026-04-25 22:50 | 32.49355 | 7.55287 | 31011 ft | 482 kts | 174° |
| 2026-04-25 22:50 | 32.42786 | 7.56863 | 31013 ft | 481 kts | 174° |
| 2026-04-25 22:51 | 32.36261 | 7.58426 | 31004 ft | 482 kts | 174° |
| 2026-04-25 22:51 | 32.29679 | 7.59999 | 31008 ft | 483 kts | 174° |
| 2026-04-25 22:52 | 32.23083 | 7.61575 | 31004 ft | 484 kts | 174° |
| 2026-04-25 22:52 | 32.17562 | 7.62893 | 31004 ft | 483 kts | 174° |
| 2026-04-25 22:53 | 32.09894 | 7.64720 | 30994 ft | 483 kts | 174° |
| 2026-04-25 22:53 | 32.03304 | 7.66287 | 30999 ft | 483 kts | 174° |
| 2026-04-25 22:54 | 31.96718 | 7.67851 | 30999 ft | 483 kts | 174° |
| 2026-04-25 22:54 | 31.90131 | 7.69414 | 30993 ft | 483 kts | 174° |
| 2026-04-25 22:55 | 31.83544 | 7.70973 | 30973 ft | 483 kts | 174° |
| 2026-04-25 22:55 | 31.76948 | 7.72532 | 30990 ft | 483 kts | 174° |
| 2026-04-25 22:56 | 31.70361 | 7.74103 | 30990 ft | 483 kts | 174° |
| 2026-04-25 22:56 | 31.63821 | 7.75691 | 30993 ft | 483 kts | 174° |
| 2026-04-25 22:57 | 31.57237 | 7.77289 | 30990 ft | 483 kts | 174° |
| 2026-04-25 22:57 | 31.50660 | 7.78877 | 30991 ft | 483 kts | 174° |
| 2026-04-25 22:58 | 31.44069 | 7.80464 | 30985 ft | 483 kts | 174° |
| 2026-04-25 22:58 | 31.37486 | 7.82046 | 30983 ft | 483 kts | 174° |
| 2026-04-25 22:59 | 31.30903 | 7.83626 | 30982 ft | 483 kts | 174° |
| 2026-04-25 22:59 | 31.24326 | 7.85202 | 30978 ft | 483 kts | 174° |
| 2026-04-25 23:00 | 31.17736 | 7.86779 | 30981 ft | 483 kts | 174° |
| 2026-04-25 23:00 | 31.11150 | 7.88354 | 30979 ft | 482 kts | 174° |
| 2026-04-25 23:01 | 31.04580 | 7.89922 | 30976 ft | 482 kts | 174° |
| 2026-04-25 23:01 | 30.98011 | 7.91487 | 30979 ft | 482 kts | 173° |
| 2026-04-25 23:02 | 30.91441 | 7.93051 | 30964 ft | 482 kts | 173° |
| 2026-04-25 23:02 | 30.84872 | 7.94612 | 30974 ft | 482 kts | 173° |
| 2026-04-25 23:03 | 30.78347 | 7.96160 | 30974 ft | 482 kts | 174° |
| 2026-04-25 23:03 | 30.71777 | 7.97717 | 30971 ft | 482 kts | 173° |
| 2026-04-25 23:04 | 30.66292 | 7.99014 | 30970 ft | 485 kts | 173° |
| 2026-04-25 23:04 | 30.58557 | 8.00842 | 30967 ft | 486 kts | 173° |
| 2026-04-25 23:05 | 30.51935 | 8.02408 | 30967 ft | 486 kts | 173° |
| 2026-04-25 23:05 | 30.45315 | 8.03969 | 30958 ft | 485 kts | 173° |
| 2026-04-25 23:06 | 30.38697 | 8.05527 | 30963 ft | 485 kts | 173° |
| 2026-04-25 23:06 | 30.32077 | 8.07080 | 30963 ft | 485 kts | 173° |
| 2026-04-25 23:07 | 30.25457 | 8.08635 | 30962 ft | 485 kts | 173° |
| 2026-04-25 23:07 | 30.18838 | 8.10187 | 30966 ft | 485 kts | 173° |
| 2026-04-25 23:08 | 30.13342 | 8.11474 | 30958 ft | 485 kts | 173° |
| 2026-04-25 23:08 | 30.05635 | 8.13277 | 30963 ft | 486 kts | 173° |
| 2026-04-25 23:09 | 30.00084 | 8.14592 | 30963 ft | 486 kts | 173° |
| 2026-04-25 23:09 | 29.93513 | 8.16157 | 30962 ft | 485 kts | 173° |
| 2026-04-25 23:10 | 29.86894 | 8.17729 | 30962 ft | 486 kts | 173° |
| 2026-04-25 23:10 | 29.80272 | 8.19299 | 30961 ft | 486 kts | 173° |
| 2026-04-25 23:11 | 29.73654 | 8.20865 | 30964 ft | 485 kts | 173° |
| 2026-04-25 23:11 | 29.67037 | 8.22428 | 30961 ft | 485 kts | 173° |
| 2026-04-25 23:12 | 29.60420 | 8.23990 | 30958 ft | 485 kts | 173° |
| 2026-04-25 23:12 | 29.53800 | 8.25550 | 30957 ft | 485 kts | 172° |
| 2026-04-25 23:13 | 29.47177 | 8.27109 | 30958 ft | 485 kts | 172° |
| 2026-04-25 23:13 | 29.40600 | 8.28655 | 30955 ft | 485 kts | 172° |
| 2026-04-25 23:14 | 29.33994 | 8.30206 | 30954 ft | 485 kts | 172° |
| 2026-04-25 23:14 | 29.27372 | 8.31758 | 30941 ft | 485 kts | 172° |
| 2026-04-25 23:15 | 29.20760 | 8.33306 | 30952 ft | 485 kts | 172° |
| 2026-04-25 23:15 | 29.14152 | 8.34851 | 30958 ft | 485 kts | 172° |
| 2026-04-25 23:16 | 29.07533 | 8.36396 | 30963 ft | 486 kts | 172° |
| 2026-04-25 23:16 | 29.00908 | 8.37942 | 30963 ft | 486 kts | 172° |
| 2026-04-25 23:17 | 28.94284 | 8.39484 | 30964 ft | 485 kts | 172° |
| 2026-04-25 23:17 | 28.87706 | 8.41015 | 30961 ft | 485 kts | 172° |
| 2026-04-25 23:18 | 28.81092 | 8.42551 | 30960 ft | 485 kts | 172° |
| 2026-04-25 23:18 | 28.74478 | 8.44085 | 30962 ft | 485 kts | 172° |
| 2026-04-25 23:19 | 28.67863 | 8.45618 | 30956 ft | 485 kts | 172° |
| 2026-04-25 23:19 | 28.61250 | 8.47148 | 30965 ft | 485 kts | 172° |
| 2026-04-25 23:20 | 28.54642 | 8.48675 | 30964 ft | 484 kts | 172° |
| 2026-04-25 23:20 | 28.48036 | 8.50200 | 30969 ft | 484 kts | 172° |
| 2026-04-25 23:21 | 28.41432 | 8.51722 | 30970 ft | 484 kts | 172° |
| 2026-04-25 23:21 | 28.34872 | 8.53232 | 30963 ft | 484 kts | 172° |
| 2026-04-25 23:22 | 28.28271 | 8.54749 | 30967 ft | 484 kts | 172° |
| 2026-04-25 23:23 | 28.18381 | 8.57020 | 30965 ft | 484 kts | 172° |
| 2026-04-25 23:23 | 28.11783 | 8.58532 | 30965 ft | 484 kts | 172° |
| 2026-04-25 23:24 | 28.05160 | 8.60052 | 31168 ft | 486 kts | 172° |
| 2026-04-25 23:24 | 28.01847 | 8.60820 | 31318 ft | 486 kts | 172° |
| 2026-04-25 23:24 | 27.98535 | 8.61590 | 31477 ft | 486 kts | 172° |
| 2026-04-25 23:24 | 27.95222 | 8.62359 | 31623 ft | 486 kts | 172° |
| 2026-04-25 23:25 | 27.91909 | 8.63127 | 31765 ft | 486 kts | 172° |
| 2026-04-25 23:25 | 27.88596 | 8.63894 | 31906 ft | 486 kts | 172° |
| 2026-04-25 23:25 | 27.85284 | 8.64660 | 32062 ft | 486 kts | 172° |
| 2026-04-25 23:25 | 27.82017 | 8.65415 | 32205 ft | 486 kts | 172° |
| 2026-04-25 23:26 | 27.78706 | 8.66178 | 32337 ft | 485 kts | 172° |
| 2026-04-25 23:26 | 27.75397 | 8.66941 | 32472 ft | 485 kts | 172° |
| 2026-04-25 23:26 | 27.72088 | 8.67704 | 32603 ft | 485 kts | 172° |
| 2026-04-25 23:26 | 27.68778 | 8.68466 | 32733 ft | 485 kts | 172° |
| 2026-04-25 23:27 | 27.65470 | 8.69227 | 32859 ft | 485 kts | 172° |
| 2026-04-25 23:27 | 27.58868 | 8.70746 | 32957 ft | 480 kts | 172° |
| 2026-04-25 23:28 | 27.52373 | 8.72241 | 32958 ft | 475 kts | 172° |
| 2026-04-25 23:28 | 27.45887 | 8.73726 | 32961 ft | 475 kts | 172° |
| 2026-04-25 23:29 | 27.39403 | 8.75210 | 32957 ft | 475 kts | 172° |
| 2026-04-25 23:29 | 27.32917 | 8.76693 | 32953 ft | 476 kts | 172° |
| 2026-04-25 23:30 | 27.26474 | 8.78166 | 32956 ft | 476 kts | 172° |
| 2026-04-25 23:30 | 27.19951 | 8.79655 | 32968 ft | 476 kts | 172° |
| 2026-04-25 23:31 | 27.13509 | 8.81124 | 32963 ft | 475 kts | 172° |
| 2026-04-25 23:31 | 27.07032 | 8.82599 | 32959 ft | 475 kts | 173° |
| 2026-04-25 23:32 | 27.00557 | 8.84072 | 32964 ft | 475 kts | 172° |
| 2026-04-25 23:32 | 26.94083 | 8.85553 | 32966 ft | 475 kts | 172° |
| 2026-04-25 23:33 | 26.87612 | 8.87037 | 32958 ft | 474 kts | 172° |
| 2026-04-25 23:33 | 26.81145 | 8.88517 | 32972 ft | 474 kts | 172° |
| 2026-04-25 23:34 | 26.74685 | 8.89994 | 32968 ft | 474 kts | 173° |
| 2026-04-25 23:34 | 26.68225 | 8.91468 | 32955 ft | 474 kts | 173° |
| 2026-04-25 23:35 | 26.61765 | 8.92941 | 32954 ft | 474 kts | 173° |
| 2026-04-25 23:35 | 26.55308 | 8.94412 | 32959 ft | 473 kts | 173° |
| 2026-04-25 23:36 | 26.48880 | 8.95876 | 32961 ft | 471 kts | 173° |
| 2026-04-25 23:36 | 26.42456 | 8.97336 | 32966 ft | 471 kts | 173° |
| 2026-04-25 23:37 | 26.36065 | 8.98786 | 32967 ft | 471 kts | 173° |
| 2026-04-25 23:37 | 26.29640 | 9.00242 | 32968 ft | 471 kts | 173° |
| 2026-04-25 23:38 | 26.23218 | 9.01697 | 32968 ft | 470 kts | 173° |
| 2026-04-25 23:38 | 26.16816 | 9.03146 | 32977 ft | 470 kts | 173° |
| 2026-04-25 23:39 | 26.10409 | 9.04593 | 32977 ft | 470 kts | 173° |
| 2026-04-25 23:39 | 26.03995 | 9.06041 | 32983 ft | 470 kts | 173° |
| 2026-04-25 23:40 | 25.97589 | 9.07488 | 32980 ft | 470 kts | 173° |
| 2026-04-25 23:40 | 25.91180 | 9.08943 | 32983 ft | 470 kts | 173° |
| 2026-04-25 23:41 | 25.84772 | 9.10400 | 32991 ft | 469 kts | 173° |
| 2026-04-25 23:41 | 25.78379 | 9.11852 | 32990 ft | 469 kts | 173° |
| 2026-04-25 23:42 | 25.72022 | 9.13291 | 32996 ft | 469 kts | 173° |
| 2026-04-25 23:42 | 25.65630 | 9.14736 | 32970 ft | 469 kts | 174° |
| 2026-04-25 23:43 | 25.59242 | 9.16180 | 32988 ft | 468 kts | 174° |
| 2026-04-25 23:43 | 25.52815 | 9.17631 | 33002 ft | 468 kts | 174° |
| 2026-04-25 23:44 | 25.46439 | 9.19069 | 33009 ft | 468 kts | 174° |
| 2026-04-25 23:44 | 25.40055 | 9.20507 | 33007 ft | 468 kts | 174° |
| 2026-04-25 23:45 | 25.33714 | 9.21934 | 33000 ft | 468 kts | 174° |
| 2026-04-25 23:45 | 25.27318 | 9.23371 | 33008 ft | 469 kts | 174° |
| 2026-04-25 23:46 | 25.20914 | 9.24809 | 33014 ft | 470 kts | 174° |
| 2026-04-25 23:46 | 25.14501 | 9.26248 | 33016 ft | 470 kts | 174° |
| 2026-04-25 23:47 | 25.08097 | 9.27683 | 33021 ft | 470 kts | 174° |
| 2026-04-25 23:47 | 25.01692 | 9.29116 | 33010 ft | 470 kts | 175° |
| 2026-04-25 23:48 | 24.95289 | 9.30551 | 33021 ft | 469 kts | 175° |
| 2026-04-25 23:48 | 24.88890 | 9.31985 | 33023 ft | 469 kts | 175° |
| 2026-04-25 23:49 | 24.82490 | 9.33409 | 33009 ft | 469 kts | 175° |
| 2026-04-25 23:49 | 24.76097 | 9.34830 | 33009 ft | 469 kts | 175° |
| 2026-04-25 23:50 | 24.69691 | 9.36256 | 32995 ft | 469 kts | 175° |
| 2026-04-25 23:50 | 24.63294 | 9.37679 | 33003 ft | 469 kts | 175° |
| 2026-04-25 23:51 | 24.56949 | 9.39089 | 33043 ft | 469 kts | 175° |
| 2026-04-25 23:51 | 24.50557 | 9.40507 | 33063 ft | 469 kts | 175° |
| 2026-04-25 23:52 | 24.44165 | 9.41924 | 33082 ft | 469 kts | 175° |
| 2026-04-25 23:52 | 24.37773 | 9.43339 | 33102 ft | 468 kts | 175° |
| 2026-04-25 23:53 | 24.31386 | 9.44794 | 33098 ft | 471 kts | 171° |
| 2026-04-25 23:53 | 24.25257 | 9.47586 | 33107 ft | 484 kts | 158° |
| 2026-04-25 23:54 | 24.19374 | 9.51247 | 33092 ft | 488 kts | 156° |
| 2026-04-25 23:54 | 24.13529 | 9.55048 | 33068 ft | 489 kts | 156° |
| 2026-04-25 23:55 | 24.07679 | 9.58836 | 33021 ft | 488 kts | 156° |
| 2026-04-25 23:55 | 24.01808 | 9.62601 | 33009 ft | 490 kts | 156° |
| 2026-04-25 23:56 | 23.95918 | 9.66361 | 32994 ft | 490 kts | 156° |
| 2026-04-25 23:56 | 23.90025 | 9.70118 | 32999 ft | 490 kts | 156° |
| 2026-04-25 23:57 | 23.84139 | 9.73868 | 32995 ft | 490 kts | 156° |
| 2026-04-25 23:57 | 23.78240 | 9.77624 | 32989 ft | 490 kts | 156° |
| 2026-04-25 23:58 | 23.72384 | 9.81348 | 32995 ft | 491 kts | 157° |
| 2026-04-25 23:58 | 23.66456 | 9.85111 | 32991 ft | 493 kts | 158° |
| 2026-04-25 23:59 | 23.60522 | 9.88877 | 32987 ft | 493 kts | 158° |
| 2026-04-25 23:59 | 23.54586 | 9.92640 | 32992 ft | 493 kts | 158° |
| 2026-04-26 00:00 | 23.48649 | 9.96400 | 32988 ft | 493 kts | 158° |
| 2026-04-26 00:00 | 23.43679 | 9.99544 | 32995 ft | 493 kts | 158° |
| 2026-04-26 00:01 | 23.37779 | 10.03273 | 32986 ft | 494 kts | 158° |
| 2026-04-26 00:01 | 23.31830 | 10.07029 | 32982 ft | 494 kts | 158° |
| 2026-04-26 00:02 | 23.25879 | 10.10782 | 32980 ft | 494 kts | 158° |
| 2026-04-26 00:02 | 23.19927 | 10.14532 | 32980 ft | 494 kts | 158° |
| 2026-04-26 00:03 | 23.13976 | 10.18277 | 32977 ft | 494 kts | 158° |
| 2026-04-26 00:03 | 23.08024 | 10.22020 | 32960 ft | 494 kts | 158° |
| 2026-04-26 00:04 | 23.02067 | 10.25760 | 32979 ft | 494 kts | 158° |
| 2026-04-26 00:04 | 22.96152 | 10.29470 | 32979 ft | 494 kts | 158° |
| 2026-04-26 00:05 | 22.90204 | 10.33198 | 32979 ft | 494 kts | 158° |
| 2026-04-26 00:05 | 22.84257 | 10.36923 | 32974 ft | 494 kts | 158° |
| 2026-04-26 00:06 | 22.78308 | 10.40644 | 32974 ft | 494 kts | 158° |
| 2026-04-26 00:06 | 22.72358 | 10.44361 | 32978 ft | 495 kts | 159° |
| 2026-04-26 00:07 | 22.66386 | 10.48087 | 32969 ft | 496 kts | 159° |
| 2026-04-26 00:07 | 22.60422 | 10.51842 | 32966 ft | 497 kts | 157° |
| 2026-04-26 00:08 | 22.54538 | 10.55798 | 32976 ft | 498 kts | 156° |
| 2026-04-26 00:08 | 22.48671 | 10.59796 | 32964 ft | 498 kts | 156° |
| 2026-04-26 00:09 | 22.42802 | 10.63757 | 32922 ft | 497 kts | 156° |
| 2026-04-26 00:09 | 22.36926 | 10.67690 | 32965 ft | 497 kts | 156° |
| 2026-04-26 00:10 | 22.31040 | 10.71618 | 32958 ft | 497 kts | 156° |
| 2026-04-26 00:10 | 22.25194 | 10.75518 | 32963 ft | 497 kts | 156° |
| 2026-04-26 00:11 | 22.19317 | 10.79437 | 32954 ft | 497 kts | 156° |
| 2026-04-26 00:11 | 22.13432 | 10.83357 | 32953 ft | 497 kts | 156° |
| 2026-04-26 00:12 | 22.07546 | 10.87274 | 32952 ft | 497 kts | 156° |
| 2026-04-26 00:12 | 22.01660 | 10.91187 | 32954 ft | 497 kts | 156° |
| 2026-04-26 00:13 | 21.95777 | 10.95094 | 32947 ft | 497 kts | 156° |
| 2026-04-26 00:13 | 21.89893 | 10.98997 | 32940 ft | 497 kts | 156° |
| 2026-04-26 00:14 | 21.84009 | 11.02897 | 32951 ft | 497 kts | 156° |
| 2026-04-26 00:14 | 21.78124 | 11.06794 | 32927 ft | 497 kts | 156° |
| 2026-04-26 00:15 | 21.72239 | 11.10687 | 32934 ft | 496 kts | 156° |
| 2026-04-26 00:15 | 21.66360 | 11.14573 | 32929 ft | 496 kts | 156° |
| 2026-04-26 00:16 | 21.60485 | 11.18452 | 32933 ft | 495 kts | 156° |
| 2026-04-26 00:16 | 21.54649 | 11.22301 | 32924 ft | 495 kts | 156° |
| 2026-04-26 00:17 | 21.48780 | 11.26168 | 32921 ft | 495 kts | 156° |
| 2026-04-26 00:17 | 21.42896 | 11.30042 | 32928 ft | 496 kts | 156° |
| 2026-04-26 00:18 | 21.37020 | 11.33907 | 32917 ft | 495 kts | 156° |
| 2026-04-26 00:18 | 21.31154 | 11.37762 | 32919 ft | 494 kts | 156° |
| 2026-04-26 00:19 | 21.25296 | 11.41607 | 32923 ft | 494 kts | 156° |
| 2026-04-26 00:19 | 21.19426 | 11.45456 | 32922 ft | 494 kts | 157° |
| 2026-04-26 00:20 | 21.13561 | 11.49299 | 32920 ft | 494 kts | 156° |
| 2026-04-26 00:20 | 21.07702 | 11.53135 | 32918 ft | 494 kts | 156° |
| 2026-04-26 00:21 | 21.01836 | 11.56973 | 32916 ft | 494 kts | 157° |
| 2026-04-26 00:21 | 20.95969 | 11.60807 | 32914 ft | 494 kts | 157° |
| 2026-04-26 00:22 | 20.90101 | 11.64638 | 32913 ft | 494 kts | 157° |
| 2026-04-26 00:22 | 20.84233 | 11.68466 | 32912 ft | 494 kts | 157° |
| 2026-04-26 00:23 | 20.78404 | 11.72265 | 32909 ft | 494 kts | 157° |
| 2026-04-26 00:23 | 20.72530 | 11.76090 | 32884 ft | 494 kts | 157° |
| 2026-04-26 00:24 | 20.66669 | 11.79904 | 32907 ft | 493 kts | 156° |
| 2026-04-26 00:24 | 20.60818 | 11.83707 | 32915 ft | 492 kts | 157° |
| 2026-04-26 00:25 | 20.54968 | 11.87506 | 32903 ft | 492 kts | 157° |
| 2026-04-26 00:25 | 20.49109 | 11.91305 | 32913 ft | 492 kts | 157° |
| 2026-04-26 00:26 | 20.43263 | 11.95091 | 32902 ft | 492 kts | 157° |
| 2026-04-26 00:26 | 20.37410 | 11.98879 | 32907 ft | 492 kts | 156° |
| 2026-04-26 00:27 | 20.31559 | 12.02663 | 32900 ft | 492 kts | 156° |
| 2026-04-26 00:27 | 20.25749 | 12.06417 | 32903 ft | 492 kts | 156° |
| 2026-04-26 00:28 | 20.19899 | 12.10193 | 32902 ft | 492 kts | 156° |
| 2026-04-26 00:28 | 20.14054 | 12.13962 | 32898 ft | 492 kts | 157° |
| 2026-04-26 00:29 | 20.08204 | 12.17732 | 32901 ft | 492 kts | 157° |
| 2026-04-26 00:29 | 20.02353 | 12.21498 | 32888 ft | 491 kts | 156° |
| 2026-04-26 00:30 | 19.96505 | 12.25260 | 32902 ft | 491 kts | 156° |
| 2026-04-26 00:30 | 19.90660 | 12.29017 | 32896 ft | 491 kts | 156° |
| 2026-04-26 00:31 | 19.84814 | 12.32770 | 32895 ft | 491 kts | 156° |
| 2026-04-26 00:31 | 19.78961 | 12.36526 | 32893 ft | 491 kts | 156° |
| 2026-04-26 00:32 | 19.73120 | 12.40270 | 32893 ft | 491 kts | 156° |
| 2026-04-26 00:32 | 19.64360 | 12.45879 | 32893 ft | 489 kts | 156° |
| 2026-04-26 00:33 | 19.58569 | 12.49584 | 32890 ft | 489 kts | 156° |
| 2026-04-26 00:33 | 19.52746 | 12.53304 | 32889 ft | 489 kts | 156° |
| 2026-04-26 00:34 | 19.46923 | 12.57022 | 32886 ft | 489 kts | 156° |
| 2026-04-26 00:34 | 19.41098 | 12.60738 | 32887 ft | 489 kts | 156° |
| 2026-04-26 00:35 | 19.35279 | 12.64447 | 32870 ft | 489 kts | 156° |
| 2026-04-26 00:35 | 19.29444 | 12.68164 | 32889 ft | 488 kts | 156° |
| 2026-04-26 00:36 | 19.23635 | 12.71862 | 32890 ft | 488 kts | 156° |
| 2026-04-26 00:36 | 19.17817 | 12.75560 | 32886 ft | 488 kts | 156° |
| 2026-04-26 00:37 | 19.11998 | 12.79257 | 32891 ft | 488 kts | 156° |
| 2026-04-26 00:37 | 19.06184 | 12.82948 | 32886 ft | 487 kts | 156° |
| 2026-04-26 00:38 | 19.00341 | 12.86422 | 32869 ft | 479 kts | 164° |
| 2026-04-26 00:38 | 18.97230 | 12.87560 | 32884 ft | 468 kts | 174° |
| 2026-04-26 00:38 | 18.94058 | 12.88120 | 32889 ft | 458 kts | 182° |
| 2026-04-26 00:39 | 18.87706 | 12.88496 | 32888 ft | 456 kts | 185° |
| 2026-04-26 00:39 | 18.81366 | 12.88662 | 32886 ft | 456 kts | 185° |
| 2026-04-26 00:40 | 18.75023 | 12.88826 | 32884 ft | 456 kts | 185° |
| 2026-04-26 00:40 | 18.68675 | 12.89021 | 32884 ft | 456 kts | 185° |
| 2026-04-26 00:41 | 18.62323 | 12.89230 | 32881 ft | 457 kts | 185° |
| 2026-04-26 00:41 | 18.55943 | 12.89441 | 32881 ft | 459 kts | 185° |
| 2026-04-26 00:42 | 18.49561 | 12.89653 | 32881 ft | 459 kts | 185° |
| 2026-04-26 00:42 | 18.43188 | 12.89864 | 32881 ft | 459 kts | 185° |
| 2026-04-26 00:43 | 18.36850 | 12.90073 | 32881 ft | 459 kts | 185° |
| 2026-04-26 00:43 | 18.30470 | 12.90282 | 32879 ft | 459 kts | 185° |
| 2026-04-26 00:44 | 18.24081 | 12.90491 | 32876 ft | 460 kts | 184° |
| 2026-04-26 00:44 | 18.17691 | 12.90701 | 32876 ft | 460 kts | 184° |
| 2026-04-26 00:45 | 18.12372 | 12.90876 | 32876 ft | 460 kts | 184° |
| 2026-04-26 00:45 | 18.04901 | 12.91121 | 32875 ft | 460 kts | 184° |
| 2026-04-26 00:46 | 17.98507 | 12.91331 | 32853 ft | 460 kts | 184° |
| 2026-04-26 00:46 | 17.92100 | 12.91539 | 32869 ft | 460 kts | 184° |
| 2026-04-26 00:47 | 17.85700 | 12.91749 | 32873 ft | 461 kts | 184° |
| 2026-04-26 00:47 | 17.79288 | 12.91959 | 32871 ft | 460 kts | 184° |
| 2026-04-26 00:48 | 17.72925 | 12.92167 | 32869 ft | 460 kts | 184° |
| 2026-04-26 00:48 | 17.66482 | 12.92377 | 32868 ft | 461 kts | 184° |
| 2026-04-26 00:49 | 17.60076 | 12.92585 | 32866 ft | 460 kts | 184° |
| 2026-04-26 00:49 | 17.53712 | 12.92793 | 32863 ft | 461 kts | 184° |
| 2026-04-26 00:50 | 17.47305 | 12.93002 | 32863 ft | 461 kts | 184° |
| 2026-04-26 00:50 | 17.40897 | 12.93210 | 32856 ft | 461 kts | 184° |
| 2026-04-26 00:51 | 17.34488 | 12.93419 | 32857 ft | 461 kts | 184° |
| 2026-04-26 00:51 | 17.29160 | 12.93592 | 32863 ft | 460 kts | 184° |
| 2026-04-26 00:52 | 17.22772 | 12.93799 | 32852 ft | 459 kts | 184° |
| 2026-04-26 00:52 | 17.16387 | 12.94006 | 32856 ft | 459 kts | 184° |
| 2026-04-26 00:53 | 17.10003 | 12.94213 | 32859 ft | 459 kts | 184° |
| 2026-04-26 00:53 | 17.03611 | 12.94421 | 32857 ft | 459 kts | 184° |
| 2026-04-26 00:54 | 16.97233 | 12.94627 | 32836 ft | 459 kts | 184° |
| 2026-04-26 00:54 | 16.90853 | 12.94834 | 32845 ft | 458 kts | 184° |
| 2026-04-26 00:55 | 16.84510 | 12.95039 | 32856 ft | 458 kts | 184° |
| 2026-04-26 00:55 | 16.78106 | 12.95246 | 32857 ft | 458 kts | 184° |
| 2026-04-26 00:56 | 16.71780 | 12.95450 | 32842 ft | 458 kts | 184° |
| 2026-04-26 00:56 | 16.65411 | 12.95656 | 32846 ft | 458 kts | 184° |
| 2026-04-26 00:57 | 16.59040 | 12.95861 | 32843 ft | 458 kts | 183° |
| 2026-04-26 00:57 | 16.52667 | 12.96066 | 32841 ft | 458 kts | 183° |
| 2026-04-26 00:58 | 16.46293 | 12.96272 | 32838 ft | 458 kts | 183° |
| 2026-04-26 00:58 | 16.39919 | 12.96477 | 32833 ft | 458 kts | 183° |
| 2026-04-26 00:59 | 16.33545 | 12.96682 | 32838 ft | 458 kts | 183° |
| 2026-04-26 00:59 | 16.27171 | 12.96887 | 32828 ft | 458 kts | 183° |
| 2026-04-26 01:00 | 16.20786 | 12.97092 | 32838 ft | 459 kts | 183° |
| 2026-04-26 01:00 | 16.14396 | 12.97297 | 32839 ft | 459 kts | 183° |
| 2026-04-26 01:01 | 16.08004 | 12.97503 | 32840 ft | 459 kts | 183° |
| 2026-04-26 01:01 | 16.01613 | 12.97708 | 32830 ft | 459 kts | 183° |
| 2026-04-26 01:02 | 15.95220 | 12.97913 | 32835 ft | 460 kts | 183° |
| 2026-04-26 01:02 | 15.88825 | 12.98117 | 32838 ft | 460 kts | 182° |
| 2026-04-26 01:03 | 15.82467 | 12.98318 | 32839 ft | 460 kts | 182° |
| 2026-04-26 01:03 | 15.76065 | 12.98522 | 32834 ft | 460 kts | 182° |
| 2026-04-26 01:04 | 15.69663 | 12.98726 | 32834 ft | 460 kts | 182° |
| 2026-04-26 01:04 | 15.63267 | 12.98929 | 32835 ft | 460 kts | 182° |
| 2026-04-26 01:05 | 15.56865 | 12.99133 | 32829 ft | 460 kts | 182° |
| 2026-04-26 01:05 | 15.50452 | 12.99336 | 32827 ft | 461 kts | 182° |
| 2026-04-26 01:06 | 15.44041 | 12.99540 | 32828 ft | 461 kts | 182° |
| 2026-04-26 01:06 | 15.37631 | 12.99744 | 32828 ft | 461 kts | 182° |
| 2026-04-26 01:07 | 15.31230 | 12.99947 | 32832 ft | 460 kts | 182° |
| 2026-04-26 01:07 | 15.24817 | 13.00150 | 32820 ft | 460 kts | 182° |
| 2026-04-26 01:08 | 15.18411 | 13.00353 | 32834 ft | 461 kts | 182° |
| 2026-04-26 01:08 | 15.11991 | 13.00556 | 32834 ft | 462 kts | 182° |
| 2026-04-26 01:09 | 15.05606 | 13.00758 | 32834 ft | 462 kts | 182° |
| 2026-04-26 01:09 | 14.99185 | 13.00961 | 32834 ft | 461 kts | 182° |
| 2026-04-26 01:10 | 14.92766 | 13.01163 | 32837 ft | 461 kts | 182° |
| 2026-04-26 01:10 | 14.86343 | 13.01366 | 32834 ft | 463 kts | 182° |
| 2026-04-26 01:11 | 14.79893 | 13.01569 | 32839 ft | 464 kts | 182° |
| 2026-04-26 01:11 | 14.73443 | 13.01773 | 32838 ft | 464 kts | 182° |
| 2026-04-26 01:12 | 14.66985 | 13.01977 | 32838 ft | 464 kts | 182° |
| 2026-04-26 01:12 | 14.60520 | 13.02181 | 32838 ft | 464 kts | 182° |
| 2026-04-26 01:13 | 14.54069 | 13.02384 | 32831 ft | 464 kts | 182° |
| 2026-04-26 01:13 | 14.47597 | 13.02588 | 32840 ft | 466 kts | 182° |
| 2026-04-26 01:14 | 14.41105 | 13.02792 | 32837 ft | 466 kts | 182° |
| 2026-04-26 01:14 | 14.34662 | 13.02995 | 32836 ft | 466 kts | 182° |
| 2026-04-26 01:15 | 14.28176 | 13.03199 | 32839 ft | 466 kts | 182° |
| 2026-04-26 01:15 | 14.21691 | 13.03395 | 32841 ft | 466 kts | 182° |
| 2026-04-26 01:16 | 14.15198 | 13.03540 | 32840 ft | 466 kts | 182° |
| 2026-04-26 01:16 | 14.08714 | 13.03677 | 32843 ft | 466 kts | 182° |
| 2026-04-26 01:17 | 14.02222 | 13.03822 | 32843 ft | 466 kts | 182° |
| 2026-04-26 01:17 | 13.95743 | 13.03971 | 32841 ft | 466 kts | 182° |
| 2026-04-26 01:18 | 13.89256 | 13.04123 | 32839 ft | 466 kts | 182° |
| 2026-04-26 01:18 | 13.82763 | 13.04273 | 32836 ft | 466 kts | 182° |
| 2026-04-26 01:19 | 13.76316 | 13.04422 | 32840 ft | 467 kts | 182° |
| 2026-04-26 01:19 | 13.69816 | 13.04573 | 32837 ft | 467 kts | 182° |
| 2026-04-26 01:20 | 13.63316 | 13.04723 | 32839 ft | 467 kts | 182° |
| 2026-04-26 01:20 | 13.56817 | 13.04874 | 32837 ft | 467 kts | 182° |
| 2026-04-26 01:21 | 13.50317 | 13.05036 | 32836 ft | 467 kts | 181° |
| 2026-04-26 01:21 | 13.43814 | 13.05233 | 32842 ft | 467 kts | 181° |
| 2026-04-26 01:22 | 13.37311 | 13.05432 | 32847 ft | 467 kts | 181° |
| 2026-04-26 01:22 | 13.30807 | 13.05625 | 32835 ft | 467 kts | 181° |
| 2026-04-26 01:23 | 13.24305 | 13.05816 | 32838 ft | 467 kts | 181° |
| 2026-04-26 01:23 | 13.17802 | 13.06006 | 32842 ft | 467 kts | 181° |
| 2026-04-26 01:24 | 13.11341 | 13.06194 | 32846 ft | 468 kts | 181° |
| 2026-04-26 01:24 | 13.04831 | 13.06384 | 32837 ft | 468 kts | 181° |
| 2026-04-26 01:25 | 12.98321 | 13.06575 | 32836 ft | 468 kts | 181° |
| 2026-04-26 01:25 | 12.91811 | 13.06765 | 32837 ft | 468 kts | 181° |
| 2026-04-26 01:26 | 12.85302 | 13.06955 | 32853 ft | 468 kts | 181° |
| 2026-04-26 01:26 | 12.78784 | 13.07145 | 32846 ft | 468 kts | 181° |
| 2026-04-26 01:27 | 12.72282 | 13.07335 | 32850 ft | 467 kts | 181° |
| 2026-04-26 01:27 | 12.65789 | 13.07524 | 32845 ft | 467 kts | 181° |
| 2026-04-26 01:28 | 12.59338 | 13.07712 | 32849 ft | 467 kts | 181° |
| 2026-04-26 01:28 | 12.52846 | 13.07901 | 32845 ft | 467 kts | 181° |
| 2026-04-26 01:29 | 12.46360 | 13.08090 | 32841 ft | 467 kts | 181° |
| 2026-04-26 01:29 | 12.39872 | 13.08279 | 32845 ft | 466 kts | 180° |
| 2026-04-26 01:30 | 12.33400 | 13.08468 | 32846 ft | 465 kts | 180° |
| 2026-04-26 01:30 | 12.26931 | 13.08658 | 32844 ft | 465 kts | 181° |
| 2026-04-26 01:31 | 12.20462 | 13.08842 | 32846 ft | 465 kts | 181° |
| 2026-04-26 01:31 | 12.13992 | 13.09026 | 32849 ft | 465 kts | 181° |
| 2026-04-26 01:32 | 12.07515 | 13.09212 | 32850 ft | 465 kts | 180° |
| 2026-04-26 01:32 | 12.01039 | 13.09398 | 32849 ft | 466 kts | 180° |
| 2026-04-26 01:33 | 11.94592 | 13.09584 | 32852 ft | 466 kts | 180° |
| 2026-04-26 01:33 | 11.88112 | 13.09891 | 32847 ft | 468 kts | 174° |
| 2026-04-26 01:34 | 11.81764 | 13.11428 | 32854 ft | 470 kts | 166° |
| 2026-04-26 01:34 | 11.75492 | 13.13358 | 32849 ft | 471 kts | 165° |
| 2026-04-26 01:35 | 11.69229 | 13.15350 | 32846 ft | 472 kts | 165° |
| 2026-04-26 01:35 | 11.62951 | 13.17331 | 32862 ft | 472 kts | 165° |
| 2026-04-26 01:36 | 11.56668 | 13.19297 | 32856 ft | 472 kts | 165° |
| 2026-04-26 01:37 | 11.47238 | 13.22236 | 32864 ft | 472 kts | 165° |
| 2026-04-26 01:37 | 11.40959 | 13.24193 | 32867 ft | 472 kts | 165° |
| 2026-04-26 01:38 | 11.34666 | 13.26154 | 32858 ft | 472 kts | 165° |
| 2026-04-26 01:38 | 11.28423 | 13.28098 | 32879 ft | 472 kts | 165° |
| 2026-04-26 01:39 | 11.22141 | 13.30053 | 32860 ft | 472 kts | 165° |
| 2026-04-26 01:39 | 11.15859 | 13.32008 | 32877 ft | 472 kts | 165° |
| 2026-04-26 01:40 | 11.09578 | 13.33961 | 32873 ft | 472 kts | 165° |
| 2026-04-26 01:40 | 11.03298 | 13.35914 | 32890 ft | 472 kts | 165° |
| 2026-04-26 01:41 | 10.97017 | 13.37865 | 32890 ft | 471 kts | 164° |
| 2026-04-26 01:41 | 10.90750 | 13.39813 | 32893 ft | 470 kts | 164° |
| 2026-04-26 01:42 | 10.84489 | 13.41756 | 32881 ft | 470 kts | 164° |
| 2026-04-26 01:42 | 10.78262 | 13.43688 | 32890 ft | 470 kts | 164° |
| 2026-04-26 01:43 | 10.72000 | 13.45630 | 32905 ft | 470 kts | 164° |
| 2026-04-26 01:43 | 10.66794 | 13.47244 | 32893 ft | 470 kts | 164° |
| 2026-04-26 01:44 | 10.60539 | 13.49183 | 32899 ft | 470 kts | 164° |
| 2026-04-26 01:44 | 10.54261 | 13.51062 | 32917 ft | 470 kts | 165° |
| 2026-04-26 01:45 | 10.47957 | 13.52865 | 32918 ft | 470 kts | 165° |
| 2026-04-26 01:45 | 10.41661 | 13.54664 | 32924 ft | 470 kts | 165° |
| 2026-04-26 01:46 | 10.35368 | 13.56477 | 32926 ft | 470 kts | 165° |
| 2026-04-26 01:46 | 10.29076 | 13.58298 | 32910 ft | 470 kts | 165° |
| 2026-04-26 01:47 | 10.22788 | 13.60118 | 32922 ft | 469 kts | 165° |
| 2026-04-26 01:47 | 10.16507 | 13.61935 | 32925 ft | 469 kts | 165° |
| 2026-04-26 01:48 | 10.10267 | 13.63738 | 32919 ft | 469 kts | 165° |
| 2026-04-26 01:48 | 10.03988 | 13.65556 | 32895 ft | 469 kts | 165° |
| 2026-04-26 01:49 | 9.97702 | 13.67379 | 32902 ft | 469 kts | 165° |
| 2026-04-26 01:49 | 9.91428 | 13.69196 | 32889 ft | 469 kts | 165° |
| 2026-04-26 01:50 | 9.85148 | 13.71016 | 32902 ft | 468 kts | 165° |
| 2026-04-26 01:50 | 9.78891 | 13.72827 | 32893 ft | 468 kts | 165° |
| 2026-04-26 01:51 | 9.72622 | 13.74642 | 32885 ft | 468 kts | 165° |
| 2026-04-26 01:51 | 9.66360 | 13.76454 | 32892 ft | 468 kts | 165° |
| 2026-04-26 01:52 | 9.60099 | 13.78265 | 32874 ft | 468 kts | 165° |
| 2026-04-26 01:52 | 9.53837 | 13.80076 | 32888 ft | 468 kts | 165° |
| 2026-04-26 01:53 | 9.47580 | 13.81892 | 32886 ft | 467 kts | 165° |
| 2026-04-26 01:53 | 9.41332 | 13.83730 | 32888 ft | 468 kts | 165° |
| 2026-04-26 01:54 | 9.35084 | 13.85571 | 32873 ft | 468 kts | 165° |
| 2026-04-26 01:54 | 9.28874 | 13.87386 | 32872 ft | 468 kts | 165° |
| 2026-04-26 01:55 | 9.22614 | 13.89187 | 32889 ft | 468 kts | 165° |
| 2026-04-26 01:55 | 9.16353 | 13.90985 | 32876 ft | 468 kts | 165° |
| 2026-04-26 01:56 | 9.10087 | 13.92789 | 32888 ft | 468 kts | 165° |
| 2026-04-26 01:56 | 9.03824 | 13.94596 | 32889 ft | 468 kts | 165° |
| 2026-04-26 01:57 | 8.97554 | 13.96404 | 32877 ft | 469 kts | 165° |
| 2026-04-26 01:57 | 8.91276 | 13.98214 | 32891 ft | 468 kts | 165° |
| 2026-04-26 01:58 | 8.85006 | 14.00021 | 32875 ft | 469 kts | 165° |
| 2026-04-26 01:58 | 8.78741 | 14.01827 | 32890 ft | 469 kts | 165° |
| 2026-04-26 01:59 | 8.72451 | 14.03640 | 32874 ft | 470 kts | 165° |
| 2026-04-26 01:59 | 8.66154 | 14.05452 | 32891 ft | 470 kts | 165° |
| 2026-04-26 02:00 | 8.59856 | 14.07262 | 32888 ft | 470 kts | 165° |
| 2026-04-26 02:00 | 8.53601 | 14.09059 | 32891 ft | 470 kts | 165° |
| 2026-04-26 02:01 | 8.47305 | 14.10867 | 32882 ft | 470 kts | 165° |
| 2026-04-26 02:01 | 8.41008 | 14.12676 | 32895 ft | 470 kts | 165° |
| 2026-04-26 02:02 | 8.34709 | 14.14485 | 32892 ft | 471 kts | 165° |
| 2026-04-26 02:02 | 8.28403 | 14.16295 | 32899 ft | 471 kts | 165° |
| 2026-04-26 02:03 | 8.22110 | 14.18101 | 32927 ft | 471 kts | 165° |
| 2026-04-26 02:03 | 8.15809 | 14.19909 | 32912 ft | 471 kts | 165° |
| 2026-04-26 02:04 | 8.09507 | 14.21716 | 32927 ft | 471 kts | 165° |
| 2026-04-26 02:04 | 8.03199 | 14.23524 | 32946 ft | 472 kts | 165° |
| 2026-04-26 02:05 | 7.96884 | 14.25337 | 32944 ft | 472 kts | 165° |
| 2026-04-26 02:05 | 7.90574 | 14.27146 | 32950 ft | 472 kts | 165° |
| 2026-04-26 02:06 | 7.84247 | 14.28957 | 32957 ft | 474 kts | 165° |
| 2026-04-26 02:06 | 7.77855 | 14.30786 | 32968 ft | 481 kts | 165° |
| 2026-04-26 02:07 | 7.71412 | 14.32630 | 32961 ft | 487 kts | 165° |
| 2026-04-26 02:07 | 7.64917 | 14.34492 | 32970 ft | 484 kts | 164° |
| 2026-04-26 02:08 | 7.58451 | 14.36344 | 32961 ft | 483 kts | 165° |
| 2026-04-26 02:08 | 7.51985 | 14.38192 | 32959 ft | 483 kts | 165° |
| 2026-04-26 02:09 | 7.45517 | 14.40041 | 32978 ft | 483 kts | 165° |
| 2026-04-26 02:09 | 7.39050 | 14.41890 | 32976 ft | 483 kts | 165° |
| 2026-04-26 02:10 | 7.32583 | 14.43738 | 32996 ft | 483 kts | 165° |
| 2026-04-26 02:10 | 7.26111 | 14.45590 | 32997 ft | 484 kts | 165° |
| 2026-04-26 02:11 | 7.19638 | 14.47443 | 32983 ft | 484 kts | 165° |
| 2026-04-26 02:11 | 7.13162 | 14.49289 | 33000 ft | 484 kts | 165° |
| 2026-04-26 02:12 | 7.06685 | 14.51136 | 32977 ft | 484 kts | 165° |
| 2026-04-26 02:12 | 7.00209 | 14.52983 | 32985 ft | 484 kts | 165° |
| 2026-04-26 02:13 | 6.93778 | 14.54818 | 32990 ft | 483 kts | 165° |
| 2026-04-26 02:13 | 6.87303 | 14.56665 | 32987 ft | 484 kts | 165° |
| 2026-04-26 02:14 | 6.80833 | 14.58510 | 33003 ft | 484 kts | 165° |
| 2026-04-26 02:14 | 6.74358 | 14.60356 | 32991 ft | 483 kts | 165° |
| 2026-04-26 02:15 | 6.67876 | 14.62203 | 33002 ft | 484 kts | 165° |
| 2026-04-26 02:15 | 6.61399 | 14.64048 | 33002 ft | 484 kts | 165° |
| 2026-04-26 02:16 | 6.54907 | 14.65897 | 32984 ft | 485 kts | 164° |
| 2026-04-26 02:16 | 6.48455 | 14.67736 | 32999 ft | 485 kts | 164° |
| 2026-04-26 02:17 | 6.41915 | 14.69597 | 32999 ft | 485 kts | 164° |
| 2026-04-26 02:17 | 6.35425 | 14.71443 | 32985 ft | 485 kts | 164° |
| 2026-04-26 02:18 | 6.28973 | 14.73279 | 32996 ft | 485 kts | 164° |
| 2026-04-26 02:18 | 6.22469 | 14.75128 | 32982 ft | 485 kts | 164° |
| 2026-04-26 02:19 | 6.15968 | 14.76977 | 32976 ft | 486 kts | 164° |
| 2026-04-26 02:19 | 6.09452 | 14.78830 | 32989 ft | 487 kts | 164° |
| 2026-04-26 02:20 | 6.02927 | 14.80684 | 32987 ft | 487 kts | 164° |
| 2026-04-26 02:20 | 5.96418 | 14.82534 | 32975 ft | 487 kts | 164° |
| 2026-04-26 02:21 | 5.89901 | 14.84385 | 32992 ft | 487 kts | 164° |
| 2026-04-26 02:21 | 5.83383 | 14.86236 | 32975 ft | 487 kts | 164° |
| 2026-04-26 02:22 | 5.76860 | 14.88088 | 32972 ft | 487 kts | 164° |
| 2026-04-26 02:22 | 5.70378 | 14.89928 | 32988 ft | 487 kts | 164° |
| 2026-04-26 02:23 | 5.63854 | 14.91780 | 32973 ft | 487 kts | 164° |
| 2026-04-26 02:23 | 5.57328 | 14.93631 | 32963 ft | 488 kts | 165° |
| 2026-04-26 02:24 | 5.50789 | 14.95486 | 32974 ft | 489 kts | 164° |
| 2026-04-26 02:24 | 5.44253 | 14.97340 | 32962 ft | 488 kts | 164° |
| 2026-04-26 02:25 | 5.37706 | 14.99196 | 32966 ft | 488 kts | 164° |
| 2026-04-26 02:25 | 5.31168 | 15.01050 | 32965 ft | 488 kts | 164° |
| 2026-04-26 02:26 | 5.24626 | 15.02904 | 32960 ft | 488 kts | 164° |
| 2026-04-26 02:26 | 5.18086 | 15.04757 | 32970 ft | 488 kts | 164° |
| 2026-04-26 02:27 | 5.11549 | 15.06609 | 32956 ft | 487 kts | 164° |
| 2026-04-26 02:27 | 5.05085 | 15.08440 | 32954 ft | 485 kts | 164° |
| 2026-04-26 02:28 | 4.98594 | 15.10278 | 32957 ft | 485 kts | 164° |
| 2026-04-26 02:28 | 4.92106 | 15.12116 | 33213 ft | 484 kts | 164° |
| 2026-04-26 02:28 | 4.88871 | 15.13032 | 33420 ft | 482 kts | 164° |
| 2026-04-26 02:29 | 4.85642 | 15.13945 | 33605 ft | 482 kts | 164° |
| 2026-04-26 02:29 | 4.82410 | 15.14860 | 33772 ft | 481 kts | 164° |
| 2026-04-26 02:29 | 4.79189 | 15.15771 | 33948 ft | 481 kts | 164° |
| 2026-04-26 02:29 | 4.75964 | 15.16683 | 34093 ft | 480 kts | 164° |
| 2026-04-26 02:30 | 4.72757 | 15.17590 | 34291 ft | 478 kts | 164° |
| 2026-04-26 02:30 | 4.69561 | 15.18494 | 34450 ft | 477 kts | 163° |
| 2026-04-26 02:30 | 4.66370 | 15.19397 | 34585 ft | 476 kts | 163° |
| 2026-04-26 02:30 | 4.63190 | 15.20296 | 34708 ft | 476 kts | 163° |
| 2026-04-26 02:31 | 4.60000 | 15.21199 | 34843 ft | 475 kts | 163° |
| 2026-04-26 02:31 | 4.53633 | 15.22999 | 34953 ft | 478 kts | 163° |
| 2026-04-26 02:32 | 4.47258 | 15.24802 | 34953 ft | 479 kts | 163° |
| 2026-04-26 02:32 | 4.40853 | 15.26612 | 34951 ft | 478 kts | 163° |
| 2026-04-26 02:33 | 4.34442 | 15.28424 | 34951 ft | 480 kts | 164° |
| 2026-04-26 02:33 | 4.28007 | 15.30243 | 34949 ft | 481 kts | 164° |
| 2026-04-26 02:34 | 4.21562 | 15.32063 | 34950 ft | 481 kts | 164° |
| 2026-04-26 02:34 | 4.15117 | 15.33885 | 34951 ft | 481 kts | 164° |
| 2026-04-26 02:35 | 4.09764 | 15.35389 | 34950 ft | 481 kts | 164° |
| 2026-04-26 02:35 | 4.03316 | 15.37194 | 34949 ft | 481 kts | 164° |
| 2026-04-26 02:36 | 3.96878 | 15.38998 | 34946 ft | 480 kts | 164° |
| 2026-04-26 02:36 | 3.90451 | 15.40795 | 34950 ft | 479 kts | 164° |
| 2026-04-26 02:37 | 3.84026 | 15.42594 | 34956 ft | 479 kts | 164° |
| 2026-04-26 02:37 | 3.77600 | 15.44395 | 34954 ft | 479 kts | 164° |
| 2026-04-26 02:38 | 3.71176 | 15.46195 | 34957 ft | 479 kts | 164° |
| 2026-04-26 02:38 | 3.64794 | 15.47982 | 34955 ft | 479 kts | 163° |
| 2026-04-26 02:39 | 3.58386 | 15.49777 | 34955 ft | 477 kts | 163° |
| 2026-04-26 02:39 | 3.51993 | 15.51567 | 34956 ft | 477 kts | 163° |
| 2026-04-26 02:40 | 3.45602 | 15.53356 | 34953 ft | 477 kts | 163° |
| 2026-04-26 02:40 | 3.39210 | 15.55146 | 34956 ft | 477 kts | 163° |
| 2026-04-26 02:41 | 3.32817 | 15.56936 | 34958 ft | 477 kts | 163° |
| 2026-04-26 02:41 | 3.26425 | 15.58725 | 34957 ft | 477 kts | 163° |
| 2026-04-26 02:42 | 3.20033 | 15.60513 | 34958 ft | 477 kts | 163° |
| 2026-04-26 02:42 | 3.13640 | 15.62302 | 34960 ft | 477 kts | 163° |
| 2026-04-26 02:43 | 3.04044 | 15.64987 | 34957 ft | 476 kts | 163° |
| 2026-04-26 02:43 | 2.97685 | 15.66767 | 34958 ft | 474 kts | 163° |
| 2026-04-26 02:44 | 2.91370 | 15.68533 | 34957 ft | 474 kts | 163° |
| 2026-04-26 02:44 | 2.85007 | 15.70315 | 34957 ft | 475 kts | 163° |
| 2026-04-26 02:45 | 2.78631 | 15.72096 | 34956 ft | 476 kts | 163° |
| 2026-04-26 02:45 | 2.72257 | 15.73890 | 34957 ft | 476 kts | 163° |
| 2026-04-26 02:46 | 2.65886 | 15.75695 | 34957 ft | 476 kts | 163° |
| 2026-04-26 02:46 | 2.59514 | 15.77498 | 34954 ft | 476 kts | 163° |
| 2026-04-26 02:47 | 2.53140 | 15.79298 | 34952 ft | 476 kts | 163° |
| 2026-04-26 02:47 | 2.46755 | 15.81101 | 34953 ft | 477 kts | 163° |
| 2026-04-26 02:48 | 2.40374 | 15.82902 | 34951 ft | 477 kts | 163° |
| 2026-04-26 02:48 | 2.33980 | 15.84707 | 34949 ft | 477 kts | 163° |
| 2026-04-26 02:49 | 2.27634 | 15.86497 | 34950 ft | 477 kts | 163° |
| 2026-04-26 02:49 | 2.21246 | 15.88300 | 34952 ft | 477 kts | 163° |
| 2026-04-26 02:50 | 2.14851 | 15.90104 | 34955 ft | 477 kts | 162° |
| 2026-04-26 02:50 | 2.08466 | 15.91906 | 34954 ft | 477 kts | 162° |
| 2026-04-26 02:51 | 2.02082 | 15.93707 | 34947 ft | 477 kts | 162° |
| 2026-04-26 02:51 | 1.95690 | 15.95511 | 34945 ft | 477 kts | 162° |
| 2026-04-26 02:52 | 1.89312 | 15.97310 | 34948 ft | 477 kts | 162° |
| 2026-04-26 02:52 | 1.82919 | 15.99113 | 34946 ft | 477 kts | 162° |
| 2026-04-26 02:53 | 1.76526 | 16.00918 | 34947 ft | 477 kts | 162° |
| 2026-04-26 02:53 | 1.70144 | 16.02720 | 34948 ft | 476 kts | 163° |
| 2026-04-26 02:54 | 1.63815 | 16.04502 | 34954 ft | 476 kts | 163° |
| 2026-04-26 02:54 | 1.57433 | 16.06301 | 34948 ft | 476 kts | 163° |
| 2026-04-26 02:55 | 1.51057 | 16.08098 | 34944 ft | 476 kts | 163° |
| 2026-04-26 02:55 | 1.44680 | 16.09896 | 34946 ft | 476 kts | 163° |
| 2026-04-26 02:56 | 1.38294 | 16.11697 | 34945 ft | 476 kts | 163° |
| 2026-04-26 02:56 | 1.31915 | 16.13495 | 34945 ft | 476 kts | 163° |
| 2026-04-26 02:57 | 1.25536 | 16.15293 | 34946 ft | 476 kts | 163° |
| 2026-04-26 02:57 | 1.19157 | 16.17092 | 34947 ft | 476 kts | 163° |
| 2026-04-26 02:58 | 1.12821 | 16.18878 | 34962 ft | 476 kts | 163° |
| 2026-04-26 02:58 | 1.06440 | 16.20677 | 34946 ft | 477 kts | 163° |
| 2026-04-26 02:59 | 1.00036 | 16.22485 | 34957 ft | 479 kts | 163° |
| 2026-04-26 02:59 | 0.93618 | 16.24293 | 34945 ft | 479 kts | 163° |
| 2026-04-26 03:00 | 0.87201 | 16.26100 | 34956 ft | 479 kts | 163° |
| 2026-04-26 03:00 | 0.80787 | 16.27907 | 34959 ft | 479 kts | 163° |
| 2026-04-26 03:01 | 0.74372 | 16.29714 | 34951 ft | 479 kts | 163° |
| 2026-04-26 03:01 | 0.67957 | 16.31522 | 34946 ft | 479 kts | 163° |
| 2026-04-26 03:02 | 0.61543 | 16.33329 | 34947 ft | 479 kts | 163° |
| 2026-04-26 03:02 | 0.55130 | 16.35138 | 34960 ft | 479 kts | 163° |
| 2026-04-26 03:03 | 0.48714 | 16.36950 | 34946 ft | 480 kts | 163° |
| 2026-04-26 03:03 | 0.42268 | 16.38764 | 34959 ft | 481 kts | 163° |
| 2026-04-26 03:04 | 0.35835 | 16.40574 | 34962 ft | 481 kts | 163° |
| 2026-04-26 03:04 | 0.29385 | 16.42390 | 34947 ft | 481 kts | 163° |
| 2026-04-26 03:05 | 0.22936 | 16.44207 | 34958 ft | 481 kts | 163° |
| 2026-04-26 03:05 | 0.16486 | 16.46025 | 34946 ft | 481 kts | 163° |
| 2026-04-26 03:06 | 0.10037 | 16.47842 | 34961 ft | 481 kts | 163° |
| 2026-04-26 03:06 | 0.03587 | 16.49659 | 34960 ft | 481 kts | 163° |
| 2026-04-26 03:07 | -0.02820 | 16.51464 | 34951 ft | 482 kts | 163° |
| 2026-04-26 03:07 | -0.09272 | 16.53284 | 34954 ft | 483 kts | 163° |
| 2026-04-26 03:08 | -0.15739 | 16.55105 | 34955 ft | 483 kts | 163° |
| 2026-04-26 03:08 | -0.22206 | 16.56927 | 34951 ft | 483 kts | 163° |
| 2026-04-26 03:09 | -0.28680 | 16.58751 | 34956 ft | 483 kts | 163° |
| 2026-04-26 03:09 | -0.35147 | 16.60573 | 34958 ft | 483 kts | 163° |
| 2026-04-26 03:10 | -0.41614 | 16.62395 | 34956 ft | 483 kts | 163° |
| 2026-04-26 03:10 | -0.48080 | 16.64217 | 34958 ft | 483 kts | 163° |
| 2026-04-26 03:11 | -0.54540 | 16.66037 | 34958 ft | 483 kts | 163° |
| 2026-04-26 03:11 | -0.61008 | 16.67854 | 34952 ft | 483 kts | 163° |
| 2026-04-26 03:12 | -0.67479 | 16.69662 | 34951 ft | 483 kts | 163° |
| 2026-04-26 03:12 | -0.73954 | 16.71471 | 34940 ft | 484 kts | 163° |
| 2026-04-26 03:13 | -0.80407 | 16.73278 | 34954 ft | 486 kts | 163° |
| 2026-04-26 03:13 | -0.86927 | 16.75101 | 34956 ft | 487 kts | 163° |
| 2026-04-26 03:14 | -0.93443 | 16.76923 | 34955 ft | 487 kts | 163° |
| 2026-04-26 03:14 | -0.99967 | 16.78749 | 34951 ft | 487 kts | 163° |
| 2026-04-26 03:15 | -1.06498 | 16.80576 | 34944 ft | 487 kts | 163° |
| 2026-04-26 03:15 | -1.13023 | 16.82404 | 34951 ft | 488 kts | 163° |
| 2026-04-26 03:16 | -1.19581 | 16.84242 | 34942 ft | 491 kts | 163° |
| 2026-04-26 03:16 | -1.26152 | 16.86076 | 34950 ft | 491 kts | 163° |
| 2026-04-26 03:17 | -1.32738 | 16.87885 | 34949 ft | 491 kts | 163° |
| 2026-04-26 03:17 | -1.39331 | 16.89694 | 34943 ft | 491 kts | 163° |
| 2026-04-26 03:18 | -1.45916 | 16.91506 | 34952 ft | 491 kts | 163° |
| 2026-04-26 03:18 | -1.52495 | 16.93320 | 34948 ft | 491 kts | 163° |
| 2026-04-26 03:19 | -1.59085 | 16.95137 | 34950 ft | 491 kts | 163° |
| 2026-04-26 03:19 | -1.65675 | 16.96955 | 34951 ft | 491 kts | 163° |
| 2026-04-26 03:20 | -1.72272 | 16.98774 | 34950 ft | 491 kts | 163° |
| 2026-04-26 03:20 | -1.78818 | 17.00579 | 34949 ft | 491 kts | 163° |
| 2026-04-26 03:21 | -1.85408 | 17.02396 | 34952 ft | 491 kts | 163° |
| 2026-04-26 03:21 | -1.92010 | 17.04220 | 34954 ft | 493 kts | 163° |
| 2026-04-26 03:22 | -1.98615 | 17.06064 | 34948 ft | 493 kts | 163° |
| 2026-04-26 03:22 | -2.05222 | 17.07910 | 34948 ft | 493 kts | 163° |
| 2026-04-26 03:23 | -2.11830 | 17.09756 | 34950 ft | 493 kts | 163° |
| 2026-04-26 03:23 | -2.18438 | 17.11600 | 34948 ft | 493 kts | 163° |
| 2026-04-26 03:24 | -2.23968 | 17.13144 | 34944 ft | 493 kts | 162° |
| 2026-04-26 03:24 | -2.30569 | 17.14987 | 34946 ft | 492 kts | 162° |
| 2026-04-26 03:25 | -2.37125 | 17.16818 | 34947 ft | 492 kts | 162° |
| 2026-04-26 03:25 | -2.43725 | 17.18661 | 34947 ft | 492 kts | 162° |
| 2026-04-26 03:26 | -2.50325 | 17.20504 | 34943 ft | 492 kts | 162° |
| 2026-04-26 03:26 | -2.56926 | 17.22348 | 34947 ft | 492 kts | 162° |
| 2026-04-26 03:27 | -2.63525 | 17.24191 | 34936 ft | 492 kts | 162° |
| 2026-04-26 03:27 | -2.70122 | 17.26035 | 34934 ft | 492 kts | 162° |
| 2026-04-26 03:28 | -2.76713 | 17.27876 | 34947 ft | 492 kts | 162° |
| 2026-04-26 03:28 | -2.83319 | 17.29722 | 34947 ft | 492 kts | 162° |
| 2026-04-26 03:29 | -2.89917 | 17.31566 | 34949 ft | 492 kts | 162° |
| 2026-04-26 03:29 | -2.96515 | 17.33410 | 34944 ft | 492 kts | 162° |
| 2026-04-26 03:30 | -3.03109 | 17.35253 | 34949 ft | 492 kts | 162° |
| 2026-04-26 03:30 | -3.09703 | 17.37096 | 34946 ft | 492 kts | 162° |
| 2026-04-26 03:31 | -3.16297 | 17.38941 | 34948 ft | 492 kts | 162° |
| 2026-04-26 03:31 | -3.22890 | 17.40784 | 34948 ft | 491 kts | 162° |
| 2026-04-26 03:32 | -3.29468 | 17.42624 | 34947 ft | 490 kts | 162° |
| 2026-04-26 03:32 | -3.36032 | 17.44459 | 34945 ft | 489 kts | 162° |
| 2026-04-26 03:33 | -3.42589 | 17.46295 | 34946 ft | 489 kts | 162° |
| 2026-04-26 03:33 | -3.49144 | 17.48137 | 34942 ft | 489 kts | 162° |
| 2026-04-26 03:34 | -3.55699 | 17.49981 | 34944 ft | 489 kts | 162° |
| 2026-04-26 03:34 | -3.62254 | 17.51825 | 34945 ft | 489 kts | 162° |
| 2026-04-26 03:35 | -3.68808 | 17.53668 | 34948 ft | 489 kts | 162° |
| 2026-04-26 03:35 | -3.75350 | 17.55508 | 34946 ft | 488 kts | 162° |
| 2026-04-26 03:36 | -3.81839 | 17.57333 | 34949 ft | 488 kts | 162° |
| 2026-04-26 03:36 | -3.88379 | 17.59173 | 34946 ft | 488 kts | 162° |
| 2026-04-26 03:37 | -3.94920 | 17.61013 | 34951 ft | 488 kts | 162° |
| 2026-04-26 03:37 | -4.01459 | 17.62853 | 34951 ft | 488 kts | 162° |
| 2026-04-26 03:38 | -4.07997 | 17.64693 | 34951 ft | 488 kts | 162° |
| 2026-04-26 03:38 | -4.14530 | 17.66529 | 34945 ft | 488 kts | 162° |
| 2026-04-26 03:39 | -4.21074 | 17.68359 | 34952 ft | 488 kts | 162° |
| 2026-04-26 03:39 | -4.27625 | 17.70190 | 34951 ft | 488 kts | 162° |
| 2026-04-26 03:40 | -4.34169 | 17.72021 | 34953 ft | 488 kts | 162° |
| 2026-04-26 03:40 | -4.40715 | 17.73854 | 34954 ft | 489 kts | 162° |
| 2026-04-26 03:41 | -4.47270 | 17.75691 | 34954 ft | 490 kts | 161° |
| 2026-04-26 03:41 | -4.53849 | 17.77533 | 34952 ft | 491 kts | 161° |
| 2026-04-26 03:42 | -4.60435 | 17.79377 | 34953 ft | 491 kts | 161° |
| 2026-04-26 03:42 | -4.67012 | 17.81220 | 34955 ft | 491 kts | 161° |
| 2026-04-26 03:43 | -4.73597 | 17.83065 | 34956 ft | 491 kts | 161° |
| 2026-04-26 03:43 | -4.80156 | 17.84906 | 34954 ft | 488 kts | 161° |
| 2026-04-26 03:44 | -4.86648 | 17.86725 | 34957 ft | 487 kts | 161° |
| 2026-04-26 03:44 | -4.93178 | 17.88580 | 34959 ft | 488 kts | 161° |
| 2026-04-26 03:45 | -4.99703 | 17.90447 | 34960 ft | 488 kts | 161° |
| 2026-04-26 03:45 | -5.06229 | 17.92312 | 34964 ft | 488 kts | 161° |
| 2026-04-26 03:46 | -5.12739 | 17.94170 | 34973 ft | 485 kts | 161° |
| 2026-04-26 03:47 | -5.22425 | 17.96931 | 34976 ft | 481 kts | 161° |
| 2026-04-26 03:47 | -5.28872 | 17.98771 | 34978 ft | 482 kts | 161° |
| 2026-04-26 03:48 | -5.35320 | 18.00612 | 34977 ft | 482 kts | 161° |
| 2026-04-26 03:48 | -5.41770 | 18.02451 | 34975 ft | 482 kts | 161° |
| 2026-04-26 03:49 | -5.48236 | 18.04232 | 34977 ft | 482 kts | 162° |
| 2026-04-26 03:49 | -5.54709 | 18.05995 | 34985 ft | 482 kts | 162° |
| 2026-04-26 03:50 | -5.61179 | 18.07767 | 34983 ft | 482 kts | 162° |
| 2026-04-26 03:50 | -5.67649 | 18.09547 | 34984 ft | 482 kts | 162° |
| 2026-04-26 03:51 | -5.74125 | 18.11331 | 34985 ft | 482 kts | 162° |
| 2026-04-26 03:51 | -5.80593 | 18.13114 | 34993 ft | 482 kts | 161° |
| 2026-04-26 03:52 | -5.87054 | 18.14894 | 34993 ft | 482 kts | 161° |
| 2026-04-26 03:52 | -5.93519 | 18.16677 | 34990 ft | 482 kts | 161° |
| 2026-04-26 03:53 | -5.99984 | 18.18459 | 34995 ft | 482 kts | 161° |
| 2026-04-26 03:53 | -6.06450 | 18.20242 | 34994 ft | 482 kts | 161° |
| 2026-04-26 03:54 | -6.12915 | 18.22025 | 34992 ft | 482 kts | 161° |
| 2026-04-26 03:54 | -6.19340 | 18.23797 | 34994 ft | 481 kts | 161° |
| 2026-04-26 03:55 | -6.25777 | 18.25598 | 35001 ft | 480 kts | 161° |
| 2026-04-26 03:55 | -6.32190 | 18.27432 | 34995 ft | 479 kts | 161° |
| 2026-04-26 03:56 | -6.38608 | 18.29268 | 35000 ft | 479 kts | 161° |
| 2026-04-26 03:56 | -6.45029 | 18.31098 | 35003 ft | 480 kts | 161° |
| 2026-04-26 03:57 | -6.51460 | 18.32902 | 35002 ft | 480 kts | 161° |
| 2026-04-26 03:57 | -6.57893 | 18.34700 | 35005 ft | 480 kts | 161° |
| 2026-04-26 03:58 | -6.64318 | 18.36499 | 35009 ft | 480 kts | 161° |
| 2026-04-26 03:58 | -6.70757 | 18.38304 | 35008 ft | 480 kts | 161° |
| 2026-04-26 03:59 | -6.77189 | 18.40108 | 35009 ft | 480 kts | 161° |
| 2026-04-26 03:59 | -6.83620 | 18.41913 | 35004 ft | 480 kts | 161° |
| 2026-04-26 04:00 | -6.90045 | 18.43717 | 35005 ft | 480 kts | 162° |
| 2026-04-26 04:00 | -6.96493 | 18.45528 | 35015 ft | 482 kts | 162° |
| 2026-04-26 04:01 | -7.02949 | 18.47341 | 35016 ft | 482 kts | 162° |
| 2026-04-26 04:01 | -7.09413 | 18.49156 | 35015 ft | 482 kts | 162° |
| 2026-04-26 04:02 | -7.15868 | 18.50970 | 35015 ft | 481 kts | 162° |
| 2026-04-26 04:02 | -7.22312 | 18.52817 | 35017 ft | 481 kts | 161° |
| 2026-04-26 04:03 | -7.28713 | 18.54776 | 35014 ft | 480 kts | 160° |
| 2026-04-26 04:03 | -7.35099 | 18.56747 | 35015 ft | 480 kts | 160° |
| 2026-04-26 04:04 | -7.41461 | 18.58693 | 35021 ft | 480 kts | 161° |
| 2026-04-26 04:04 | -7.47862 | 18.60640 | 35017 ft | 480 kts | 161° |
| 2026-04-26 04:05 | -7.54263 | 18.62586 | 35014 ft | 480 kts | 161° |
| 2026-04-26 04:05 | -7.60664 | 18.64533 | 35016 ft | 480 kts | 161° |
| 2026-04-26 04:06 | -7.67065 | 18.66482 | 35018 ft | 480 kts | 161° |
| 2026-04-26 04:06 | -7.73467 | 18.68432 | 35018 ft | 481 kts | 161° |
| 2026-04-26 04:07 | -7.79870 | 18.70382 | 35019 ft | 481 kts | 161° |
| 2026-04-26 04:07 | -7.86273 | 18.72332 | 35020 ft | 481 kts | 161° |
| 2026-04-26 04:08 | -7.92674 | 18.74283 | 35022 ft | 480 kts | 160° |
| 2026-04-26 04:08 | -7.99064 | 18.76231 | 35021 ft | 479 kts | 160° |
| 2026-04-26 04:09 | -8.05450 | 18.78179 | 35029 ft | 479 kts | 160° |
| 2026-04-26 04:09 | -8.10744 | 18.79794 | 35026 ft | 478 kts | 160° |
| 2026-04-26 04:10 | -8.18147 | 18.82054 | 35025 ft | 478 kts | 160° |
| 2026-04-26 04:10 | -8.24525 | 18.84001 | 35025 ft | 478 kts | 160° |
| 2026-04-26 04:11 | -8.29863 | 18.85631 | 35028 ft | 478 kts | 160° |
| 2026-04-26 04:11 | -8.36174 | 18.87559 | 35030 ft | 477 kts | 160° |
| 2026-04-26 04:12 | -8.42542 | 18.89472 | 35029 ft | 477 kts | 161° |
| 2026-04-26 04:12 | -8.48915 | 18.91368 | 35034 ft | 477 kts | 161° |
| 2026-04-26 04:13 | -8.55287 | 18.93270 | 35035 ft | 477 kts | 161° |
| 2026-04-26 04:13 | -8.61657 | 18.95176 | 35034 ft | 477 kts | 161° |
| 2026-04-26 04:14 | -8.68034 | 18.97087 | 35034 ft | 478 kts | 161° |
| 2026-04-26 04:14 | -8.74420 | 18.99000 | 35035 ft | 479 kts | 161° |
| 2026-04-26 04:15 | -8.80807 | 19.00915 | 35034 ft | 479 kts | 161° |
| 2026-04-26 04:15 | -8.87194 | 19.02830 | 35035 ft | 479 kts | 161° |
| 2026-04-26 04:16 | -8.93581 | 19.04746 | 35035 ft | 479 kts | 161° |
| 2026-04-26 04:16 | -8.99932 | 19.06652 | 35034 ft | 479 kts | 161° |
| 2026-04-26 04:17 | -9.06317 | 19.08568 | 35038 ft | 479 kts | 161° |
| 2026-04-26 04:17 | -9.12701 | 19.10486 | 35036 ft | 478 kts | 161° |
| 2026-04-26 04:18 | -9.19087 | 19.12404 | 35035 ft | 479 kts | 161° |
| 2026-04-26 04:18 | -9.25468 | 19.14322 | 35036 ft | 478 kts | 161° |
| 2026-04-26 04:19 | -9.31852 | 19.16241 | 35040 ft | 478 kts | 160° |
| 2026-04-26 04:19 | -9.38231 | 19.18160 | 35040 ft | 478 kts | 160° |
| 2026-04-26 04:20 | -9.44568 | 19.20066 | 35039 ft | 478 kts | 160° |
| 2026-04-26 04:20 | -9.50954 | 19.21989 | 35040 ft | 478 kts | 160° |
| 2026-04-26 04:21 | -9.57327 | 19.23907 | 35039 ft | 478 kts | 160° |
| 2026-04-26 04:21 | -9.63707 | 19.25829 | 35040 ft | 478 kts | 160° |
| 2026-04-26 04:22 | -9.70090 | 19.27744 | 35043 ft | 479 kts | 161° |
| 2026-04-26 04:22 | -9.76481 | 19.29646 | 35048 ft | 479 kts | 161° |
| 2026-04-26 04:23 | -9.82872 | 19.31550 | 35046 ft | 479 kts | 161° |
| 2026-04-26 04:23 | -9.89263 | 19.33456 | 35048 ft | 479 kts | 161° |
| 2026-04-26 04:24 | -9.95652 | 19.35364 | 35051 ft | 479 kts | 161° |
| 2026-04-26 04:24 | -10.02034 | 19.37271 | 35050 ft | 479 kts | 161° |
| 2026-04-26 04:25 | -10.08426 | 19.39182 | 35049 ft | 479 kts | 161° |
| 2026-04-26 04:25 | -10.14818 | 19.41093 | 35050 ft | 479 kts | 161° |
| 2026-04-26 04:26 | -10.21208 | 19.43005 | 35051 ft | 479 kts | 161° |
| 2026-04-26 04:26 | -10.27564 | 19.44907 | 35053 ft | 479 kts | 161° |
| 2026-04-26 04:27 | -10.33954 | 19.46821 | 35056 ft | 479 kts | 161° |
| 2026-04-26 04:27 | -10.40334 | 19.48731 | 35055 ft | 478 kts | 161° |
| 2026-04-26 04:28 | -10.46713 | 19.50642 | 35055 ft | 478 kts | 161° |
| 2026-04-26 04:28 | -10.53090 | 19.52554 | 35057 ft | 478 kts | 161° |
| 2026-04-26 04:29 | -10.59461 | 19.54465 | 35059 ft | 478 kts | 161° |
| 2026-04-26 04:29 | -10.65839 | 19.56379 | 35058 ft | 478 kts | 161° |
| 2026-04-26 04:30 | -10.72214 | 19.58293 | 35058 ft | 477 kts | 161° |
| 2026-04-26 04:30 | -10.78576 | 19.60203 | 35065 ft | 476 kts | 161° |
| 2026-04-26 04:31 | -10.84941 | 19.62115 | 35063 ft | 476 kts | 161° |
| 2026-04-26 04:31 | -10.91292 | 19.64025 | 35066 ft | 476 kts | 161° |
| 2026-04-26 04:32 | -10.97651 | 19.65937 | 35069 ft | 476 kts | 161° |
| 2026-04-26 04:32 | -11.04009 | 19.67850 | 35065 ft | 476 kts | 161° |
| 2026-04-26 04:33 | -11.10367 | 19.69763 | 35070 ft | 476 kts | 161° |
| 2026-04-26 04:33 | -11.16724 | 19.71677 | 35064 ft | 476 kts | 161° |
| 2026-04-26 04:34 | -11.23037 | 19.73579 | 35070 ft | 476 kts | 161° |
| 2026-04-26 04:34 | -11.29392 | 19.75494 | 35072 ft | 476 kts | 161° |
| 2026-04-26 04:35 | -11.35746 | 19.77410 | 35068 ft | 476 kts | 161° |
| 2026-04-26 04:35 | -11.42102 | 19.79328 | 35073 ft | 476 kts | 161° |
| 2026-04-26 04:36 | -11.48466 | 19.81249 | 35066 ft | 476 kts | 161° |
| 2026-04-26 04:36 | -11.54811 | 19.83165 | 35071 ft | 475 kts | 161° |
| 2026-04-26 04:37 | -11.61152 | 19.85080 | 35075 ft | 475 kts | 161° |
| 2026-04-26 04:37 | -11.67493 | 19.86997 | 35077 ft | 475 kts | 161° |
| 2026-04-26 04:38 | -11.73834 | 19.88915 | 35076 ft | 475 kts | 162° |
| 2026-04-26 04:38 | -11.80017 | 19.91151 | 35077 ft | 474 kts | 157° |
| 2026-04-26 04:39 | -11.86159 | 19.93616 | 35076 ft | 474 kts | 156° |
| 2026-04-26 04:39 | -11.92289 | 19.96116 | 35078 ft | 474 kts | 156° |
| 2026-04-26 04:40 | -11.98411 | 19.98615 | 35079 ft | 474 kts | 156° |
| 2026-04-26 04:40 | -12.04549 | 20.01115 | 35079 ft | 474 kts | 157° |
| 2026-04-26 04:41 | -12.10685 | 20.03613 | 35080 ft | 475 kts | 157° |
| 2026-04-26 04:41 | -12.16824 | 20.06113 | 35083 ft | 475 kts | 157° |
| 2026-04-26 04:42 | -12.22963 | 20.08615 | 35082 ft | 475 kts | 157° |
| 2026-04-26 04:42 | -12.29101 | 20.11118 | 35080 ft | 475 kts | 157° |
| 2026-04-26 04:43 | -12.35233 | 20.13619 | 35079 ft | 475 kts | 157° |
| 2026-04-26 04:43 | -12.41364 | 20.16122 | 35080 ft | 474 kts | 157° |
| 2026-04-26 04:44 | -12.47480 | 20.18619 | 35087 ft | 473 kts | 157° |
| 2026-04-26 04:44 | -12.53590 | 20.21115 | 35086 ft | 473 kts | 157° |
| 2026-04-26 04:45 | -12.59699 | 20.23612 | 35090 ft | 473 kts | 157° |
| 2026-04-26 04:45 | -12.65808 | 20.26111 | 35091 ft | 473 kts | 157° |
| 2026-04-26 04:46 | -12.71917 | 20.28611 | 35093 ft | 473 kts | 157° |
| 2026-04-26 04:46 | -12.78027 | 20.31112 | 35092 ft | 473 kts | 157° |
| 2026-04-26 04:47 | -12.84136 | 20.33615 | 35094 ft | 473 kts | 157° |
| 2026-04-26 04:47 | -12.90246 | 20.36119 | 35092 ft | 473 kts | 157° |
| 2026-04-26 04:48 | -12.99372 | 20.39861 | 35097 ft | 473 kts | 157° |
| 2026-04-26 04:48 | -13.05483 | 20.42369 | 35097 ft | 473 kts | 157° |
| 2026-04-26 04:49 | -13.11603 | 20.44882 | 35100 ft | 474 kts | 157° |
| 2026-04-26 04:49 | -13.17727 | 20.47398 | 35096 ft | 474 kts | 157° |
| 2026-04-26 04:50 | -13.23840 | 20.49910 | 35096 ft | 472 kts | 157° |
| 2026-04-26 04:50 | -13.29922 | 20.52412 | 35097 ft | 471 kts | 157° |
| 2026-04-26 04:51 | -13.36008 | 20.54916 | 35098 ft | 471 kts | 157° |
| 2026-04-26 04:51 | -13.42114 | 20.57430 | 35100 ft | 472 kts | 157° |
| 2026-04-26 04:52 | -13.48211 | 20.59941 | 35105 ft | 472 kts | 157° |
| 2026-04-26 04:52 | -13.54305 | 20.62453 | 35099 ft | 472 kts | 157° |
| 2026-04-26 04:53 | -13.60402 | 20.64967 | 35100 ft | 472 kts | 157° |
| 2026-04-26 04:53 | -13.66499 | 20.67483 | 35105 ft | 472 kts | 157° |
| 2026-04-26 04:54 | -13.72592 | 20.69999 | 35105 ft | 473 kts | 157° |
| 2026-04-26 04:54 | -13.78705 | 20.72524 | 35107 ft | 473 kts | 157° |
| 2026-04-26 04:55 | -13.84811 | 20.75048 | 35108 ft | 473 kts | 157° |
| 2026-04-26 04:55 | -13.90877 | 20.77556 | 35110 ft | 473 kts | 157° |
| 2026-04-26 04:56 | -13.96978 | 20.80081 | 35108 ft | 473 kts | 157° |
| 2026-04-26 04:56 | -14.03079 | 20.82607 | 35112 ft | 472 kts | 158° |
| 2026-04-26 04:57 | -14.09162 | 20.85130 | 35116 ft | 471 kts | 158° |
| 2026-04-26 04:57 | -14.15244 | 20.87650 | 35113 ft | 471 kts | 158° |
| 2026-04-26 04:58 | -14.21325 | 20.90170 | 35110 ft | 471 kts | 157° |
| 2026-04-26 04:58 | -14.27405 | 20.92693 | 35113 ft | 471 kts | 157° |
| 2026-04-26 04:59 | -14.32460 | 20.94791 | 35116 ft | 471 kts | 157° |
| 2026-04-26 04:59 | -14.38539 | 20.97317 | 35117 ft | 471 kts | 157° |
| 2026-04-26 05:00 | -14.44617 | 20.99844 | 35118 ft | 471 kts | 157° |
| 2026-04-26 05:00 | -14.50694 | 21.02371 | 35119 ft | 471 kts | 157° |
| 2026-04-26 05:01 | -14.56766 | 21.04898 | 35116 ft | 471 kts | 157° |
| 2026-04-26 05:01 | -14.62851 | 21.07432 | 35116 ft | 471 kts | 157° |
| 2026-04-26 05:02 | -14.68931 | 21.09965 | 35122 ft | 471 kts | 158° |
| 2026-04-26 05:02 | -14.75019 | 21.12504 | 35121 ft | 472 kts | 158° |
| 2026-04-26 05:03 | -14.81109 | 21.15044 | 35125 ft | 472 kts | 158° |
| 2026-04-26 05:03 | -14.87182 | 21.17579 | 35124 ft | 470 kts | 158° |
| 2026-04-26 05:04 | -14.93237 | 21.20108 | 35121 ft | 470 kts | 158° |
| 2026-04-26 05:04 | -14.99298 | 21.22641 | 35122 ft | 470 kts | 158° |
| 2026-04-26 05:05 | -15.05368 | 21.25179 | 35121 ft | 471 kts | 158° |
| 2026-04-26 05:05 | -15.11442 | 21.27721 | 35118 ft | 471 kts | 158° |
| 2026-04-26 05:06 | -15.17516 | 21.30264 | 35122 ft | 471 kts | 158° |
| 2026-04-26 05:06 | -15.23556 | 21.32794 | 35121 ft | 471 kts | 158° |
| 2026-04-26 05:07 | -15.29629 | 21.35341 | 35118 ft | 471 kts | 158° |
| 2026-04-26 05:07 | -15.35706 | 21.37889 | 35119 ft | 472 kts | 158° |
| 2026-04-26 05:08 | -15.41798 | 21.40447 | 35121 ft | 472 kts | 158° |
| 2026-04-26 05:08 | -15.47898 | 21.43009 | 35119 ft | 472 kts | 158° |
| 2026-04-26 05:09 | -15.53991 | 21.45570 | 35119 ft | 472 kts | 158° |
| 2026-04-26 05:09 | -15.60084 | 21.48132 | 35118 ft | 472 kts | 158° |
| 2026-04-26 05:10 | -15.66181 | 21.50698 | 35122 ft | 473 kts | 158° |
| 2026-04-26 05:10 | -15.72280 | 21.53266 | 35121 ft | 474 kts | 158° |
| 2026-04-26 05:11 | -15.78393 | 21.55842 | 35118 ft | 474 kts | 158° |
| 2026-04-26 05:11 | -15.84500 | 21.58417 | 35119 ft | 474 kts | 158° |
| 2026-04-26 05:12 | -15.90611 | 21.60995 | 35119 ft | 474 kts | 158° |
| 2026-04-26 05:12 | -15.96713 | 21.63571 | 35119 ft | 474 kts | 158° |
| 2026-04-26 05:13 | -16.02829 | 21.66155 | 35121 ft | 474 kts | 158° |
| 2026-04-26 05:13 | -16.08947 | 21.68741 | 35121 ft | 475 kts | 158° |
| 2026-04-26 05:14 | -16.15065 | 21.71330 | 35121 ft | 474 kts | 158° |
| 2026-04-26 05:14 | -16.21140 | 21.73901 | 35121 ft | 474 kts | 158° |
| 2026-04-26 05:15 | -16.27258 | 21.76494 | 35121 ft | 475 kts | 158° |
| 2026-04-26 05:15 | -16.33388 | 21.79094 | 35124 ft | 476 kts | 158° |
| 2026-04-26 05:16 | -16.39519 | 21.81693 | 35121 ft | 475 kts | 158° |
| 2026-04-26 05:16 | -16.45632 | 21.84287 | 35121 ft | 474 kts | 158° |
| 2026-04-26 05:17 | -16.51732 | 21.86878 | 35121 ft | 474 kts | 158° |
| 2026-04-26 05:17 | -16.57843 | 21.89476 | 35122 ft | 475 kts | 158° |
| 2026-04-26 05:18 | -16.63982 | 21.92090 | 35122 ft | 476 kts | 158° |
| 2026-04-26 05:18 | -16.70116 | 21.94699 | 35121 ft | 477 kts | 158° |
| 2026-04-26 05:19 | -16.76256 | 21.97313 | 35121 ft | 477 kts | 158° |
| 2026-04-26 05:19 | -16.82397 | 21.99930 | 35122 ft | 477 kts | 158° |
| 2026-04-26 05:20 | -16.88545 | 22.02553 | 35122 ft | 477 kts | 158° |
| 2026-04-26 05:20 | -16.94691 | 22.05179 | 35127 ft | 477 kts | 158° |
| 2026-04-26 05:21 | -17.00834 | 22.07801 | 35127 ft | 477 kts | 158° |
| 2026-04-26 05:21 | -17.06985 | 22.10428 | 35127 ft | 477 kts | 158° |
| 2026-04-26 05:22 | -17.13135 | 22.13059 | 35129 ft | 477 kts | 158° |
| 2026-04-26 05:22 | -17.19277 | 22.15689 | 35130 ft | 476 kts | 158° |
| 2026-04-26 05:23 | -17.25416 | 22.18320 | 35132 ft | 477 kts | 159° |
| 2026-04-26 05:23 | -17.31560 | 22.20952 | 35130 ft | 477 kts | 159° |
| 2026-04-26 05:24 | -17.37705 | 22.23587 | 35130 ft | 477 kts | 159° |
| 2026-04-26 05:24 | -17.43843 | 22.26222 | 35132 ft | 477 kts | 159° |
| 2026-04-26 05:25 | -17.49987 | 22.28862 | 35132 ft | 477 kts | 159° |
| 2026-04-26 05:25 | -17.56129 | 22.31502 | 35135 ft | 477 kts | 159° |
| 2026-04-26 05:26 | -17.62230 | 22.34127 | 35132 ft | 477 kts | 159° |
| 2026-04-26 05:26 | -17.68373 | 22.36772 | 35135 ft | 477 kts | 159° |
| 2026-04-26 05:27 | -17.74517 | 22.39419 | 35135 ft | 477 kts | 158° |
| 2026-04-26 05:27 | -17.80653 | 22.42066 | 35141 ft | 477 kts | 159° |
| 2026-04-26 05:28 | -17.86795 | 22.44752 | 35138 ft | 478 kts | 158° |
| 2026-04-26 05:28 | -17.92861 | 22.47617 | 35138 ft | 478 kts | 156° |
| 2026-04-26 05:29 | -17.98927 | 22.50451 | 35140 ft | 477 kts | 158° |
| 2026-04-26 05:29 | -18.05043 | 22.53141 | 35143 ft | 476 kts | 159° |
| 2026-04-26 05:30 | -18.11164 | 22.55820 | 35143 ft | 477 kts | 159° |
| 2026-04-26 05:30 | -18.17281 | 22.58517 | 35146 ft | 477 kts | 159° |
| 2026-04-26 05:31 | -18.23394 | 22.61224 | 35147 ft | 477 kts | 159° |
| 2026-04-26 05:31 | -18.29506 | 22.63936 | 35144 ft | 477 kts | 159° |
| 2026-04-26 05:32 | -18.35577 | 22.66632 | 35149 ft | 477 kts | 159° |
| 2026-04-26 05:32 | -18.41728 | 22.69365 | 35150 ft | 477 kts | 159° |
| 2026-04-26 05:33 | -18.47795 | 22.72063 | 35150 ft | 477 kts | 159° |
| 2026-04-26 05:33 | -18.53909 | 22.74784 | 35150 ft | 477 kts | 159° |
| 2026-04-26 05:34 | -18.60022 | 22.77506 | 35149 ft | 477 kts | 159° |
| 2026-04-26 05:34 | -18.66135 | 22.80230 | 35152 ft | 476 kts | 159° |
| 2026-04-26 05:35 | -18.72248 | 22.82917 | 35153 ft | 476 kts | 160° |
| 2026-04-26 05:35 | -18.78388 | 22.85534 | 35154 ft | 476 kts | 161° |
| 2026-04-26 05:36 | -18.84530 | 22.88155 | 35152 ft | 476 kts | 160° |
| 2026-04-26 05:36 | -18.90669 | 22.90791 | 35153 ft | 476 kts | 160° |
| 2026-04-26 05:37 | -18.96805 | 22.93435 | 35158 ft | 476 kts | 160° |
| 2026-04-26 05:37 | -19.02939 | 22.96082 | 35156 ft | 476 kts | 161° |
| 2026-04-26 05:38 | -19.09066 | 22.98751 | 35157 ft | 476 kts | 160° |
| 2026-04-26 05:38 | -19.15178 | 23.01469 | 35162 ft | 476 kts | 160° |
| 2026-04-26 05:39 | -19.21290 | 23.04192 | 35161 ft | 476 kts | 160° |
| 2026-04-26 05:39 | -19.27403 | 23.06909 | 35166 ft | 476 kts | 160° |
| 2026-04-26 05:40 | -19.33512 | 23.09624 | 35162 ft | 477 kts | 160° |
| 2026-04-26 05:40 | -19.39586 | 23.12324 | 35165 ft | 476 kts | 160° |
| 2026-04-26 05:41 | -19.45693 | 23.15041 | 35168 ft | 476 kts | 160° |
| 2026-04-26 05:41 | -19.51795 | 23.17759 | 35166 ft | 476 kts | 160° |
| 2026-04-26 05:42 | -19.57897 | 23.20479 | 35174 ft | 476 kts | 161° |
| 2026-04-26 05:42 | -19.64003 | 23.23202 | 35167 ft | 476 kts | 161° |
| 2026-04-26 05:43 | -19.70107 | 23.25927 | 35179 ft | 476 kts | 161° |
| 2026-04-26 05:43 | -19.76217 | 23.28658 | 35188 ft | 476 kts | 161° |
| 2026-04-26 05:44 | -19.82328 | 23.31391 | 35199 ft | 476 kts | 161° |
| 2026-04-26 05:44 | -19.88440 | 23.34126 | 35209 ft | 477 kts | 161° |
| 2026-04-26 05:45 | -19.94557 | 23.36866 | 35211 ft | 477 kts | 161° |
| 2026-04-26 05:45 | -19.99540 | 23.39411 | 35211 ft | 482 kts | 152° |
| 2026-04-26 05:46 | -20.05143 | 23.43363 | 35211 ft | 484 kts | 149° |
| 2026-04-26 05:46 | -20.10658 | 23.47474 | 35175 ft | 484 kts | 149° |
| 2026-04-26 05:47 | -20.16154 | 23.51603 | 35183 ft | 483 kts | 149° |
| 2026-04-26 05:47 | -20.21661 | 23.55726 | 35181 ft | 484 kts | 149° |
| 2026-04-26 05:48 | -20.27178 | 23.59847 | 35181 ft | 484 kts | 149° |
| 2026-04-26 05:48 | -20.32696 | 23.63969 | 35182 ft | 484 kts | 149° |
| 2026-04-26 05:49 | -20.40969 | 23.70157 | 35184 ft | 484 kts | 149° |
| 2026-04-26 05:50 | -20.46483 | 23.74288 | 35182 ft | 484 kts | 149° |
| 2026-04-26 05:50 | -20.51986 | 23.78413 | 35187 ft | 483 kts | 149° |
| 2026-04-26 05:51 | -20.57490 | 23.82537 | 35185 ft | 483 kts | 149° |
| 2026-04-26 05:51 | -20.62978 | 23.86659 | 35189 ft | 483 kts | 149° |
| 2026-04-26 05:52 | -20.68472 | 23.90789 | 35188 ft | 483 kts | 149° |
| 2026-04-26 05:52 | -20.73966 | 23.94923 | 35189 ft | 483 kts | 149° |
| 2026-04-26 05:53 | -20.79469 | 23.99065 | 35192 ft | 484 kts | 149° |
| 2026-04-26 05:53 | -20.84973 | 24.03212 | 35194 ft | 484 kts | 149° |
| 2026-04-26 05:54 | -20.90471 | 24.07359 | 35197 ft | 484 kts | 149° |
| 2026-04-26 05:54 | -20.95965 | 24.11507 | 35197 ft | 482 kts | 149° |
| 2026-04-26 05:55 | -21.01447 | 24.15650 | 35198 ft | 483 kts | 149° |
| 2026-04-26 05:55 | -21.06935 | 24.19799 | 35201 ft | 483 kts | 149° |
| 2026-04-26 05:56 | -21.12424 | 24.23954 | 35198 ft | 483 kts | 149° |
| 2026-04-26 05:56 | -21.17911 | 24.28112 | 35204 ft | 483 kts | 149° |
| 2026-04-26 05:57 | -21.23398 | 24.32273 | 35205 ft | 483 kts | 149° |
| 2026-04-26 05:57 | -21.28882 | 24.36436 | 35208 ft | 484 kts | 149° |
| 2026-04-26 05:58 | -21.34340 | 24.40583 | 35210 ft | 484 kts | 149° |
| 2026-04-26 05:58 | -21.39826 | 24.44756 | 35212 ft | 482 kts | 149° |
| 2026-04-26 05:59 | -21.45298 | 24.48921 | 35212 ft | 482 kts | 149° |
| 2026-04-26 05:59 | -21.50768 | 24.53089 | 35211 ft | 482 kts | 149° |
| 2026-04-26 06:00 | -21.56241 | 24.57262 | 35212 ft | 483 kts | 149° |
| 2026-04-26 06:00 | -21.61726 | 24.61448 | 35220 ft | 484 kts | 149° |
| 2026-04-26 06:01 | -21.67212 | 24.65640 | 35217 ft | 484 kts | 149° |
| 2026-04-26 06:01 | -21.72697 | 24.69836 | 35217 ft | 484 kts | 149° |
| 2026-04-26 06:02 | -21.78181 | 24.74035 | 35213 ft | 484 kts | 149° |
| 2026-04-26 06:02 | -21.83673 | 24.78243 | 35221 ft | 485 kts | 149° |
| 2026-04-26 06:03 | -21.89180 | 24.82466 | 35221 ft | 486 kts | 149° |
| 2026-04-26 06:03 | -21.94689 | 24.86693 | 35220 ft | 486 kts | 149° |
| 2026-04-26 06:04 | -22.00204 | 24.90912 | 35223 ft | 486 kts | 149° |
| 2026-04-26 06:04 | -22.05682 | 24.95104 | 35231 ft | 486 kts | 150° |
| 2026-04-26 06:05 | -22.11200 | 24.99334 | 35221 ft | 487 kts | 150° |
| 2026-04-26 06:05 | -22.16723 | 25.03573 | 35223 ft | 487 kts | 150° |
| 2026-04-26 06:06 | -22.22235 | 25.07808 | 35229 ft | 486 kts | 150° |
| 2026-04-26 06:06 | -22.27741 | 25.12043 | 35231 ft | 486 kts | 150° |
| 2026-04-26 06:07 | -22.33248 | 25.16282 | 35224 ft | 486 kts | 150° |
| 2026-04-26 06:07 | -22.38761 | 25.20530 | 35226 ft | 487 kts | 150° |
| 2026-04-26 06:08 | -22.44281 | 25.24787 | 35234 ft | 487 kts | 150° |
| 2026-04-26 06:08 | -22.49799 | 25.29048 | 35223 ft | 487 kts | 150° |
| 2026-04-26 06:09 | -22.55316 | 25.33313 | 35230 ft | 487 kts | 150° |
| 2026-04-26 06:09 | -22.60828 | 25.37577 | 35232 ft | 487 kts | 150° |
| 2026-04-26 06:10 | -22.66310 | 25.41822 | 35231 ft | 488 kts | 150° |
| 2026-04-26 06:10 | -22.71832 | 25.46103 | 35234 ft | 488 kts | 150° |
| 2026-04-26 06:11 | -22.77355 | 25.50388 | 35233 ft | 488 kts | 150° |
| 2026-04-26 06:11 | -22.82875 | 25.54677 | 35237 ft | 488 kts | 150° |
| 2026-04-26 06:12 | -22.88393 | 25.58967 | 35234 ft | 489 kts | 150° |
| 2026-04-26 06:12 | -22.93922 | 25.63271 | 35237 ft | 489 kts | 150° |
| 2026-04-26 06:13 | -22.99408 | 25.67659 | 35235 ft | 490 kts | 148° |
| 2026-04-26 06:13 | -23.04836 | 25.72132 | 35237 ft | 490 kts | 148° |
| 2026-04-26 06:14 | -23.10259 | 25.76595 | 35240 ft | 489 kts | 148° |
| 2026-04-26 06:14 | -23.15695 | 25.81050 | 35241 ft | 489 kts | 148° |
| 2026-04-26 06:15 | -23.21136 | 25.85502 | 35241 ft | 489 kts | 148° |
| 2026-04-26 06:15 | -23.26543 | 25.89931 | 35243 ft | 489 kts | 148° |
| 2026-04-26 06:16 | -23.32009 | 25.94413 | 35243 ft | 489 kts | 148° |
| 2026-04-26 06:16 | -23.37406 | 25.98844 | 35245 ft | 489 kts | 148° |
| 2026-04-26 06:17 | -23.42837 | 26.03308 | 35246 ft | 489 kts | 148° |
| 2026-04-26 06:17 | -23.48268 | 26.07777 | 35244 ft | 489 kts | 148° |
| 2026-04-26 06:18 | -23.53698 | 26.12249 | 35249 ft | 489 kts | 148° |
| 2026-04-26 06:18 | -23.59223 | 26.16559 | 35241 ft | 486 kts | 153° |
| 2026-04-26 06:19 | -23.64956 | 26.20427 | 35243 ft | 485 kts | 154° |
| 2026-04-26 06:19 | -23.70724 | 26.24295 | 35244 ft | 486 kts | 154° |
| 2026-04-26 06:20 | -23.76379 | 26.28387 | 35243 ft | 489 kts | 149° |
| 2026-04-26 06:20 | -23.81840 | 26.32845 | 35244 ft | 490 kts | 148° |
| 2026-04-26 06:21 | -23.87288 | 26.37324 | 35246 ft | 490 kts | 149° |
| 2026-04-26 06:21 | -23.92768 | 26.41770 | 35246 ft | 491 kts | 149° |
| 2026-04-26 06:22 | -23.98266 | 26.46199 | 35248 ft | 491 kts | 149° |
| 2026-04-26 06:22 | -24.03767 | 26.50627 | 35249 ft | 491 kts | 149° |
| 2026-04-26 06:23 | -24.09261 | 26.55055 | 35252 ft | 491 kts | 149° |
| 2026-04-26 06:23 | -24.14759 | 26.59493 | 35255 ft | 491 kts | 149° |
| 2026-04-26 06:24 | -24.20221 | 26.63907 | 35252 ft | 490 kts | 149° |
| 2026-04-26 06:24 | -24.25704 | 26.68344 | 35258 ft | 490 kts | 149° |
| 2026-04-26 06:25 | -24.31180 | 26.72811 | 35255 ft | 492 kts | 146° |
| 2026-04-26 06:25 | -24.36398 | 26.77716 | 35261 ft | 494 kts | 144° |
| 2026-04-26 06:26 | -24.41551 | 26.82718 | 35261 ft | 495 kts | 143° |
| 2026-04-26 06:26 | -24.46692 | 26.87739 | 35259 ft | 495 kts | 143° |
| 2026-04-26 06:27 | -24.51831 | 26.92756 | 35264 ft | 494 kts | 143° |
| 2026-04-26 06:27 | -24.56935 | 26.97736 | 35263 ft | 493 kts | 143° |
| 2026-04-26 06:28 | -24.62061 | 27.02740 | 35266 ft | 494 kts | 144° |
| 2026-04-26 06:28 | -24.67196 | 27.07759 | 35265 ft | 494 kts | 144° |
| 2026-04-26 06:29 | -24.72331 | 27.12785 | 35273 ft | 494 kts | 144° |
| 2026-04-26 06:29 | -24.77463 | 27.17814 | 35267 ft | 494 kts | 143° |
| 2026-04-26 06:30 | -24.82589 | 27.22843 | 35281 ft | 493 kts | 144° |
| 2026-04-26 06:30 | -24.87711 | 27.27873 | 35280 ft | 494 kts | 144° |
| 2026-04-26 06:31 | -24.92837 | 27.32913 | 35278 ft | 494 kts | 144° |
| 2026-04-26 06:31 | -24.97960 | 27.37956 | 35282 ft | 494 kts | 144° |
| 2026-04-26 06:32 | -25.03497 | 27.42194 | 35283 ft | 477 kts | 163° |
| 2026-04-26 06:32 | -25.06632 | 27.43256 | 35169 ft | 466 kts | 176° |
| 2026-04-26 06:32 | -25.09823 | 27.43570 | 34954 ft | 458 kts | 184° |
| 2026-04-26 06:32 | -25.13009 | 27.43635 | 34733 ft | 458 kts | 185° |
| 2026-04-26 06:33 | -25.16198 | 27.43672 | 34507 ft | 458 kts | 185° |
| 2026-04-26 06:33 | -25.19387 | 27.43709 | 34272 ft | 458 kts | 185° |
| 2026-04-26 06:33 | -25.21497 | 27.43735 | 34021 ft | 459 kts | 185° |
| 2026-04-26 06:33 | -25.24694 | 27.43776 | 33571 ft | 459 kts | 185° |
| 2026-04-26 06:34 | -25.27891 | 27.43818 | 33125 ft | 460 kts | 185° |
| 2026-04-26 06:34 | -25.31092 | 27.43862 | 32681 ft | 460 kts | 185° |
| 2026-04-26 06:34 | -25.35324 | 27.43921 | 32118 ft | 457 kts | 185° |
| 2026-04-26 06:34 | -25.38493 | 27.43966 | 31691 ft | 453 kts | 185° |
| 2026-04-26 06:35 | -25.41634 | 27.44011 | 31280 ft | 448 kts | 185° |
| 2026-04-26 06:35 | -25.44716 | 27.44056 | 30841 ft | 437 kts | 185° |
| 2026-04-26 06:35 | -25.46749 | 27.44087 | 30575 ft | 430 kts | 185° |
| 2026-04-26 06:35 | -25.49713 | 27.44129 | 30115 ft | 420 kts | 185° |
| 2026-04-26 06:36 | -25.52595 | 27.44170 | 29647 ft | 411 kts | 185° |
| 2026-04-26 06:36 | -25.55421 | 27.44209 | 29174 ft | 402 kts | 185° |
| 2026-04-26 06:36 | -25.58194 | 27.44247 | 28705 ft | 394 kts | 185° |
| 2026-04-26 06:36 | -25.60902 | 27.44284 | 28251 ft | 386 kts | 185° |
| 2026-04-26 06:37 | -25.63564 | 27.44320 | 27794 ft | 379 kts | 185° |
| 2026-04-26 06:37 | -25.66178 | 27.44355 | 27352 ft | 372 kts | 185° |
| 2026-04-26 06:37 | -25.68750 | 27.44390 | 26915 ft | 368 kts | 185° |
| 2026-04-26 06:37 | -25.71308 | 27.44423 | 26493 ft | 368 kts | 184° |
| 2026-04-26 06:38 | -25.73854 | 27.44351 | 26048 ft | 362 kts | 195° |
| 2026-04-26 06:38 | -25.76113 | 27.43381 | 25763 ft | 349 kts | 217° |
| 2026-04-26 06:38 | -25.77811 | 27.41524 | 25422 ft | 343 kts | 238° |
| 2026-04-26 06:38 | -25.78670 | 27.39075 | 25026 ft | 344 kts | 260° |
| 2026-04-26 06:39 | -25.79012 | 27.36452 | 24659 ft | 343 kts | 258° |
| 2026-04-26 06:39 | -25.79575 | 27.33886 | 24299 ft | 342 kts | 251° |
| 2026-04-26 06:39 | -25.80379 | 27.31407 | 23952 ft | 341 kts | 247° |
| 2026-04-26 06:39 | -25.81307 | 27.28989 | 23539 ft | 341 kts | 247° |
| 2026-04-26 06:40 | -25.81764 | 27.26422 | 23127 ft | 342 kts | 271° |
| 2026-04-26 06:40 | -25.81205 | 27.23864 | 22769 ft | 346 kts | 294° |
| 2026-04-26 06:40 | -25.79712 | 27.21767 | 22407 ft | 352 kts | 318° |
| 2026-04-26 06:40 | -25.77530 | 27.20511 | 22052 ft | 360 kts | 342° |
| 2026-04-26 06:41 | -25.75021 | 27.20335 | 21713 ft | 367 kts | 6° |
| 2026-04-26 06:41 | -25.72555 | 27.21096 | 21406 ft | 369 kts | 19° |
| 2026-04-26 06:41 | -25.70254 | 27.22328 | 21217 ft | 366 kts | 29° |
| 2026-04-26 06:41 | -25.68247 | 27.24027 | 21072 ft | 362 kts | 43° |
| 2026-04-26 06:42 | -25.66694 | 27.26190 | 20882 ft | 358 kts | 59° |
| 2026-04-26 06:42 | -25.65726 | 27.28706 | 20634 ft | 355 kts | 76° |
| 2026-04-26 06:42 | -25.65475 | 27.31397 | 20357 ft | 350 kts | 96° |
| 2026-04-26 06:42 | -25.66028 | 27.33991 | 20066 ft | 344 kts | 117° |
| 2026-04-26 06:43 | -25.67197 | 27.36277 | 19804 ft | 339 kts | 126° |
| 2026-04-26 06:43 | -25.68485 | 27.38469 | 19539 ft | 338 kts | 126° |
| 2026-04-26 06:43 | -25.69759 | 27.40650 | 19284 ft | 336 kts | 126° |
| 2026-04-26 06:43 | -25.71015 | 27.42832 | 19016 ft | 335 kts | 125° |
| 2026-04-26 06:44 | -25.72317 | 27.44956 | 18731 ft | 332 kts | 133° |
| 2026-04-26 06:44 | -25.74056 | 27.46568 | 18429 ft | 323 kts | 157° |
| 2026-04-26 06:44 | -25.76164 | 27.47244 | 18104 ft | 312 kts | 181° |
| 2026-04-26 06:44 | -25.78273 | 27.46930 | 17790 ft | 303 kts | 204° |
| 2026-04-26 06:45 | -25.80038 | 27.45736 | 17477 ft | 296 kts | 226° |
| 2026-04-26 06:45 | -25.81215 | 27.43906 | 17148 ft | 292 kts | 248° |
| 2026-04-26 06:45 | -25.81653 | 27.41750 | 16833 ft | 292 kts | 269° |
| 2026-04-26 06:45 | -25.81304 | 27.39511 | 16499 ft | 293 kts | 291° |
| 2026-04-26 06:46 | -25.80328 | 27.37553 | 16210 ft | 295 kts | 302° |
| 2026-04-26 06:46 | -25.79163 | 27.35675 | 15930 ft | 295 kts | 303° |
| 2026-04-26 06:46 | -25.77990 | 27.33815 | 15664 ft | 294 kts | 303° |
| 2026-04-26 06:46 | -25.76823 | 27.31956 | 15413 ft | 293 kts | 303° |
| 2026-04-26 06:47 | -25.75663 | 27.30097 | 15141 ft | 293 kts | 303° |
| 2026-04-26 06:47 | -25.74388 | 27.28343 | 14870 ft | 294 kts | 315° |
| 2026-04-26 06:47 | -25.72667 | 27.27111 | 14604 ft | 297 kts | 338° |
| 2026-04-26 06:47 | -25.70638 | 27.26742 | 14364 ft | 299 kts | 3° |
| 2026-04-26 06:48 | -25.68646 | 27.27334 | 14286 ft | 298 kts | 27° |
| 2026-04-26 06:48 | -25.67033 | 27.28757 | 14284 ft | 300 kts | 51° |
| 2026-04-26 06:48 | -25.66063 | 27.30786 | 14284 ft | 300 kts | 76° |
| 2026-04-26 06:48 | -25.65944 | 27.33077 | 14282 ft | 299 kts | 101° |
| 2026-04-26 06:49 | -25.66672 | 27.35205 | 14288 ft | 297 kts | 121° |
| 2026-04-26 06:49 | -25.67758 | 27.37158 | 14292 ft | 299 kts | 124° |
| 2026-04-26 06:49 | -25.68886 | 27.39096 | 14289 ft | 299 kts | 124° |
| 2026-04-26 06:49 | -25.70009 | 27.41042 | 14286 ft | 300 kts | 123° |
| 2026-04-26 06:50 | -25.71123 | 27.42995 | 14287 ft | 300 kts | 123° |
| 2026-04-26 06:50 | -25.72295 | 27.44903 | 14280 ft | 299 kts | 132° |
| 2026-04-26 06:50 | -25.73894 | 27.46334 | 14288 ft | 294 kts | 156° |
| 2026-04-26 06:50 | -25.75844 | 27.46859 | 14288 ft | 289 kts | 182° |
| 2026-04-26 06:51 | -25.77783 | 27.46396 | 14290 ft | 286 kts | 207° |
| 2026-04-26 06:51 | -25.80294 | 27.43170 | 14294 ft | 284 kts | 255° |
| 2026-04-26 06:51 | -25.80447 | 27.41002 | 14293 ft | 285 kts | 278° |
| 2026-04-26 06:52 | -25.79792 | 27.38928 | 14295 ft | 287 kts | 298° |
| 2026-04-26 06:52 | -25.78761 | 27.37025 | 14297 ft | 289 kts | 301° |
| 2026-04-26 06:52 | -25.77704 | 27.35124 | 14283 ft | 290 kts | 300° |
| 2026-04-26 06:52 | -25.76664 | 27.33209 | 14285 ft | 290 kts | 300° |
| 2026-04-26 06:53 | -25.75636 | 27.31319 | 14283 ft | 290 kts | 300° |
| 2026-04-26 06:53 | -25.74563 | 27.29425 | 14281 ft | 290 kts | 304° |
| 2026-04-26 06:53 | -25.73134 | 27.27849 | 14283 ft | 292 kts | 326° |
| 2026-04-26 06:53 | -25.71237 | 27.27073 | 14285 ft | 294 kts | 353° |
| 2026-04-26 06:54 | -25.69208 | 27.27289 | 14288 ft | 297 kts | 18° |
| 2026-04-26 06:54 | -25.67432 | 27.28438 | 14285 ft | 299 kts | 43° |
| 2026-04-26 06:54 | -25.66244 | 27.30342 | 14286 ft | 300 kts | 70° |
| 2026-04-26 06:54 | -25.65915 | 27.32602 | 14285 ft | 299 kts | 96° |
| 2026-04-26 06:55 | -25.66471 | 27.34766 | 14283 ft | 297 kts | 119° |
| 2026-04-26 06:55 | -25.67522 | 27.36741 | 14283 ft | 298 kts | 124° |
| 2026-04-26 06:55 | -25.68647 | 27.38680 | 14285 ft | 299 kts | 124° |
| 2026-04-26 06:55 | -25.69772 | 27.40627 | 14285 ft | 300 kts | 123° |
| 2026-04-26 06:56 | -25.70887 | 27.42580 | 14283 ft | 300 kts | 123° |
| 2026-04-26 06:56 | -25.72023 | 27.44518 | 14279 ft | 299 kts | 128° |
| 2026-04-26 06:56 | -25.73511 | 27.46096 | 14242 ft | 295 kts | 151° |
| 2026-04-26 06:56 | -25.75416 | 27.46833 | 14239 ft | 290 kts | 177° |
| 2026-04-26 06:57 | -25.77389 | 27.46577 | 14251 ft | 286 kts | 202° |
| 2026-04-26 06:57 | -25.79062 | 27.45425 | 14254 ft | 284 kts | 226° |
| 2026-04-26 06:57 | -25.80154 | 27.43617 | 14261 ft | 284 kts | 249° |
| 2026-04-26 06:57 | -25.80487 | 27.41477 | 14273 ft | 285 kts | 273° |
| 2026-04-26 06:58 | -25.79994 | 27.39355 | 14276 ft | 286 kts | 296° |
| 2026-04-26 06:58 | -25.78997 | 27.37441 | 14283 ft | 288 kts | 301° |
| 2026-04-26 06:58 | -25.77936 | 27.35546 | 14282 ft | 289 kts | 300° |
| 2026-04-26 06:58 | -25.76895 | 27.33634 | 14282 ft | 289 kts | 300° |
| 2026-04-26 06:59 | -25.75848 | 27.31732 | 14285 ft | 289 kts | 300° |
| 2026-04-26 06:59 | -25.74782 | 27.29844 | 14282 ft | 289 kts | 302° |
| 2026-04-26 06:59 | -25.73457 | 27.28173 | 14281 ft | 291 kts | 321° |
| 2026-04-26 06:59 | -25.71644 | 27.27208 | 14284 ft | 292 kts | 347° |
| 2026-04-26 07:00 | -25.69619 | 27.27212 | 14285 ft | 295 kts | 13° |
| 2026-04-26 07:00 | -25.67765 | 27.28170 | 14284 ft | 298 kts | 38° |
| 2026-04-26 07:00 | -25.66449 | 27.29892 | 14288 ft | 299 kts | 63° |
| 2026-04-26 07:00 | -25.65914 | 27.32092 | 14289 ft | 298 kts | 90° |
| 2026-04-26 07:01 | -25.66297 | 27.34355 | 14282 ft | 296 kts | 116° |
| 2026-04-26 07:01 | -25.67283 | 27.36324 | 14280 ft | 297 kts | 123° |
| 2026-04-26 07:01 | -25.68401 | 27.38256 | 14273 ft | 298 kts | 124° |
| 2026-04-26 07:01 | -25.69522 | 27.40194 | 14268 ft | 299 kts | 124° |
| 2026-04-26 07:02 | -25.70636 | 27.42139 | 14255 ft | 299 kts | 123° |
| 2026-04-26 07:02 | -25.71750 | 27.44084 | 14252 ft | 299 kts | 125° |
| 2026-04-26 07:02 | -25.73120 | 27.45790 | 14242 ft | 296 kts | 145° |
| 2026-04-26 07:02 | -25.74947 | 27.46735 | 14243 ft | 290 kts | 171° |
| 2026-04-26 07:03 | -25.76932 | 27.46697 | 14245 ft | 286 kts | 197° |
| 2026-04-26 07:03 | -25.78691 | 27.45726 | 14251 ft | 283 kts | 221° |
| 2026-04-26 07:03 | -25.79919 | 27.44042 | 14260 ft | 282 kts | 244° |
| 2026-04-26 07:03 | -25.80418 | 27.41949 | 14267 ft | 283 kts | 268° |
| 2026-04-26 07:04 | -25.80092 | 27.39806 | 14272 ft | 284 kts | 292° |
| 2026-04-26 07:04 | -25.79146 | 27.37871 | 14284 ft | 287 kts | 301° |
| 2026-04-26 07:04 | -25.78087 | 27.35988 | 14282 ft | 288 kts | 300° |
| 2026-04-26 07:04 | -25.77047 | 27.34084 | 14285 ft | 289 kts | 300° |
| 2026-04-26 07:05 | -25.76013 | 27.32174 | 14282 ft | 289 kts | 300° |
| 2026-04-26 07:05 | -25.74973 | 27.30269 | 14281 ft | 289 kts | 300° |
| 2026-04-26 07:05 | -25.73758 | 27.28497 | 14278 ft | 290 kts | 316° |
| 2026-04-26 07:05 | -25.72043 | 27.27341 | 14279 ft | 292 kts | 341° |
| 2026-04-26 07:06 | -25.70030 | 27.27136 | 14285 ft | 294 kts | 7° |
| 2026-04-26 07:06 | -25.68111 | 27.27907 | 14279 ft | 297 kts | 32° |
| 2026-04-26 07:06 | -25.66650 | 27.29510 | 14280 ft | 299 kts | 58° |
| 2026-04-26 07:06 | -25.65947 | 27.31652 | 14285 ft | 298 kts | 84° |
| 2026-04-26 07:07 | -25.66148 | 27.33922 | 14278 ft | 297 kts | 111° |
| 2026-04-26 07:07 | -25.67076 | 27.35956 | 14279 ft | 297 kts | 123° |
| 2026-04-26 07:07 | -25.68186 | 27.37891 | 14271 ft | 298 kts | 124° |
| 2026-04-26 07:07 | -25.69294 | 27.39801 | 14264 ft | 299 kts | 124° |
| 2026-04-26 07:08 | -25.70422 | 27.41765 | 14257 ft | 299 kts | 123° |
| 2026-04-26 07:08 | -25.71532 | 27.43714 | 14252 ft | 299 kts | 123° |
| 2026-04-26 07:08 | -25.72797 | 27.45489 | 14239 ft | 297 kts | 140° |
| 2026-04-26 07:08 | -25.74551 | 27.46621 | 14240 ft | 291 kts | 166° |
| 2026-04-26 07:09 | -25.76536 | 27.46786 | 14242 ft | 286 kts | 192° |
| 2026-04-26 07:09 | -25.78367 | 27.45990 | 14250 ft | 284 kts | 216° |
| 2026-04-26 07:09 | -25.79723 | 27.44428 | 14256 ft | 283 kts | 240° |
| 2026-04-26 07:09 | -25.80384 | 27.42390 | 14267 ft | 283 kts | 263° |
| 2026-04-26 07:10 | -25.78309 | 27.36375 | 14274 ft | 288 kts | 300° |
| 2026-04-26 07:11 | -25.76230 | 27.32567 | 14284 ft | 289 kts | 300° |
| 2026-04-26 07:11 | -25.75189 | 27.30657 | 14285 ft | 289 kts | 300° |
| 2026-04-26 07:11 | -25.74045 | 27.28827 | 14282 ft | 290 kts | 311° |
| 2026-04-26 07:11 | -25.72429 | 27.27505 | 14281 ft | 291 kts | 336° |
| 2026-04-26 07:12 | -25.70445 | 27.27094 | 14285 ft | 294 kts | 2° |
| 2026-04-26 07:12 | -25.68475 | 27.27673 | 14279 ft | 296 kts | 27° |
| 2026-04-26 07:12 | -25.66896 | 27.29122 | 14275 ft | 298 kts | 53° |
| 2026-04-26 07:12 | -25.66021 | 27.31176 | 14279 ft | 298 kts | 79° |
| 2026-04-26 07:13 | -25.66026 | 27.33451 | 14277 ft | 296 kts | 105° |
| 2026-04-26 07:13 | -25.66842 | 27.35524 | 14279 ft | 296 kts | 122° |
| 2026-04-26 07:13 | -25.67967 | 27.37510 | 14278 ft | 312 kts | 124° |
| 2026-04-26 07:13 | -25.69158 | 27.39561 | 14267 ft | 319 kts | 124° |
| 2026-04-26 07:14 | -25.70350 | 27.41636 | 14260 ft | 319 kts | 123° |
| 2026-04-26 07:14 | -25.71539 | 27.43725 | 14107 ft | 321 kts | 123° |
| 2026-04-26 07:14 | -25.72721 | 27.45814 | 13841 ft | 319 kts | 123° |
| 2026-04-26 07:14 | -25.73875 | 27.47866 | 13573 ft | 317 kts | 123° |
| 2026-04-26 07:15 | -25.75040 | 27.49945 | 13344 ft | 316 kts | 123° |
| 2026-04-26 07:15 | -25.76194 | 27.52003 | 13232 ft | 314 kts | 123° |
| 2026-04-26 07:15 | -25.77349 | 27.54065 | 13221 ft | 315 kts | 123° |
| 2026-04-26 07:15 | -25.78507 | 27.56133 | 13216 ft | 315 kts | 123° |
| 2026-04-26 07:16 | -25.79662 | 27.58196 | 13211 ft | 315 kts | 122° |
| 2026-04-26 07:16 | -25.80816 | 27.60259 | 13207 ft | 314 kts | 122° |
| 2026-04-26 07:16 | -25.81967 | 27.62318 | 13205 ft | 315 kts | 122° |
| 2026-04-26 07:16 | -25.83121 | 27.64383 | 13203 ft | 315 kts | 122° |
| 2026-04-26 07:17 | -25.84274 | 27.66447 | 13206 ft | 315 kts | 123° |
| 2026-04-26 07:17 | -25.85427 | 27.68513 | 13192 ft | 315 kts | 123° |
| 2026-04-26 07:17 | -25.86582 | 27.70583 | 13209 ft | 315 kts | 123° |
| 2026-04-26 07:17 | -25.87737 | 27.72653 | 13212 ft | 315 kts | 123° |
| 2026-04-26 07:18 | -25.88892 | 27.74723 | 13214 ft | 315 kts | 123° |
| 2026-04-26 07:18 | -25.90046 | 27.76795 | 13314 ft | 315 kts | 123° |
| 2026-04-26 07:18 | -25.91200 | 27.78866 | 13316 ft | 315 kts | 122° |
| 2026-04-26 07:18 | -25.92360 | 27.80948 | 13090 ft | 320 kts | 122° |
| 2026-04-26 07:19 | -25.93527 | 27.83044 | 12816 ft | 318 kts | 122° |
| 2026-04-26 07:19 | -25.94679 | 27.85120 | 12578 ft | 314 kts | 122° |
| 2026-04-26 07:19 | -25.95823 | 27.87175 | 12310 ft | 312 kts | 122° |
| 2026-04-26 07:19 | -25.96961 | 27.89220 | 12043 ft | 310 kts | 122° |
| 2026-04-26 07:20 | -25.98091 | 27.91253 | 11774 ft | 308 kts | 122° |
| 2026-04-26 07:20 | -25.99216 | 27.93277 | 11482 ft | 307 kts | 122° |
| 2026-04-26 07:20 | -26.00335 | 27.95293 | 11208 ft | 306 kts | 122° |
| 2026-04-26 07:20 | -26.01446 | 27.97296 | 10946 ft | 304 kts | 122° |
| 2026-04-26 07:21 | -26.02552 | 27.99291 | 10731 ft | 300 kts | 122° |
| 2026-04-26 07:21 | -26.03634 | 28.01244 | 10620 ft | 293 kts | 122° |
| 2026-04-26 07:21 | -26.04335 | 28.02510 | 10541 ft | 289 kts | 122° |
| 2026-04-26 07:21 | -26.05252 | 28.04463 | 10395 ft | 281 kts | 107° |
| 2026-04-26 07:22 | -26.05284 | 28.06538 | 10310 ft | 263 kts | 71° |
| 2026-04-26 07:22 | -26.04296 | 28.08194 | 10311 ft | 260 kts | 37° |
| 2026-04-26 07:22 | -26.02730 | 28.09106 | 10309 ft | 251 kts | 19° |
| 2026-04-26 07:22 | -26.01102 | 28.09816 | 10185 ft | 250 kts | 20° |
| 2026-04-26 07:23 | -25.98959 | 28.10746 | 9855 ft | 250 kts | 20° |
| 2026-04-26 07:23 | -25.97864 | 28.11220 | 9691 ft | 249 kts | 20° |
| 2026-04-26 07:23 | -25.96253 | 28.11916 | 9447 ft | 248 kts | 20° |
| 2026-04-26 07:23 | -25.94647 | 28.12609 | 9355 ft | 247 kts | 20° |
| 2026-04-26 07:24 | -25.93044 | 28.13300 | 9338 ft | 247 kts | 20° |
| 2026-04-26 07:24 | -25.91443 | 28.13989 | 9342 ft | 247 kts | 20° |
| 2026-04-26 07:24 | -25.89901 | 28.14828 | 9335 ft | 248 kts | 38° |
| 2026-04-26 07:24 | -25.88838 | 28.16321 | 9255 ft | 249 kts | 67° |
| 2026-04-26 07:25 | -25.88567 | 28.18192 | 9010 ft | 247 kts | 97° |
| 2026-04-26 07:25 | -25.88954 | 28.20041 | 8773 ft | 246 kts | 108° |
| 2026-04-26 07:25 | -25.89508 | 28.21846 | 8522 ft | 247 kts | 110° |
| 2026-04-26 07:25 | -25.90087 | 28.23642 | 8287 ft | 247 kts | 110° |
| 2026-04-26 07:26 | -25.90659 | 28.25408 | 8068 ft | 245 kts | 110° |
| 2026-04-26 07:26 | -25.91243 | 28.27180 | 8003 ft | 244 kts | 112° |
| 2026-04-26 07:26 | -25.92202 | 28.28707 | 7996 ft | 242 kts | 142° |
| 2026-04-26 07:26 | -25.93646 | 28.29637 | 7997 ft | 240 kts | 157° |
| 2026-04-26 07:27 | -25.95198 | 28.30341 | 7995 ft | 242 kts | 160° |
| 2026-04-26 07:27 | -25.96805 | 28.30806 | 7978 ft | 234 kts | 180° |
| 2026-04-26 07:27 | -25.98348 | 28.30532 | 7987 ft | 219 kts | 199° |
| 2026-04-26 07:27 | -25.99758 | 28.30026 | 7977 ft | 208 kts | 200° |
| 2026-04-26 07:28 | -26.01128 | 28.29567 | 8021 ft | 203 kts | 195° |
| 2026-04-26 07:28 | -26.02460 | 28.29170 | 7902 ft | 195 kts | 197° |
| 2026-04-26 07:28 | -26.03785 | 28.28749 | 7512 ft | 201 kts | 197° |
| 2026-04-26 07:28 | -26.05114 | 28.28336 | 7248 ft | 195 kts | 197° |
| 2026-04-26 07:29 | -26.06398 | 28.27938 | 7013 ft | 190 kts | 197° |
| 2026-04-26 07:29 | -26.07667 | 28.27543 | 6766 ft | 187 kts | 197° |
| 2026-04-26 07:29 | -26.08888 | 28.27164 | 6525 ft | 176 kts | 196° |
| 2026-04-26 07:29 | -26.10025 | 28.26811 | 6284 ft | 164 kts | 196° |
| 2026-04-26 07:30 | -26.11105 | 28.26475 | 6048 ft | 160 kts | 196° |
| 2026-04-26 07:30 | -26.12183 | 28.26144 | 5830 ft | 161 kts | 195° |
| 2026-04-26 07:30 | -26.13262 | 28.25808 | 5606 ft | 160 kts | 196° |
| 2026-04-26 07:30 | -26.14299 | 28.25485 | 5514 ft | 138 kts | 195° |
| 2026-04-26 07:31 | -26.15047 | 28.25255 | 5512 ft | 86 kts | 195° |
| 2026-04-26 07:31 | -26.15448 | 28.25131 | 5519 ft | 38 kts | 195° |
| 2026-04-26 07:31 | -26.15674 | 28.25052 | 5520 ft | 31 kts | 203° |
| 2026-04-26 07:31 | -26.15844 | 28.24923 | 5519 ft | 27 kts | 220° |
| 2026-04-26 07:32 | -26.15926 | 28.24835 | 5519 ft | 11 kts | 244° |
| 2026-04-26 07:32 | -26.15900 | 28.24792 | 5520 ft | 6 kts | 352° |
| 2026-04-26 07:32 | -26.15863 | 28.24797 | 5520 ft | 7 kts | 12° |
| 2026-04-26 07:32 | -26.15787 | 28.24818 | 5520 ft | 14 kts | 15° |
| 2026-04-26 07:33 | -26.15663 | 28.24857 | 5517 ft | 23 kts | 15° |
| 2026-04-26 07:33 | -26.15484 | 28.24913 | 5518 ft | 29 kts | 15° |
| 2026-04-26 07:33 | -26.15290 | 28.24974 | 5518 ft | 28 kts | 15° |
| 2026-04-26 07:33 | -26.15111 | 28.25029 | 5519 ft | 26 kts | 15° |
| 2026-04-26 07:34 | -26.14935 | 28.25083 | 5515 ft | 27 kts | 15° |
| 2026-04-26 07:34 | -26.14762 | 28.25137 | 5515 ft | 25 kts | 15° |
| 2026-04-26 07:34 | -26.14599 | 28.25187 | 5513 ft | 24 kts | 15° |
| 2026-04-26 07:34 | -26.14493 | 28.25215 | 5514 ft | 11 kts | 1° |
| 2026-04-26 07:35 | -26.14436 | 28.25168 | 5516 ft | 14 kts | 316° |
| 2026-04-26 07:35 | -26.14357 | 28.25084 | 5526 ft | 15 kts | 315° |
| 2026-04-26 07:35 | -26.14286 | 28.25007 | 5535 ft | 16 kts | 316° |
| 2026-04-26 07:35 | -26.14191 | 28.24904 | 5535 ft | 22 kts | 316° |
| 2026-04-26 07:36 | -26.14069 | 28.24772 | 5535 ft | 27 kts | 316° |
| 2026-04-26 07:36 | -26.13924 | 28.24615 | 5537 ft | 31 kts | 316° |
| 2026-04-26 07:36 | -26.13772 | 28.24450 | 5548 ft | 28 kts | 316° |
| 2026-04-26 07:36 | -26.13639 | 28.24305 | 5548 ft | 26 kts | 315° |
| 2026-04-26 07:37 | -26.13512 | 28.24168 | 5550 ft | 24 kts | 315° |
| 2026-04-26 07:37 | -26.13411 | 28.24058 | 5558 ft | 16 kts | 315° |
| 2026-04-26 07:37 | -26.13358 | 28.24001 | 5555 ft | 1 kts | 315° |
| 2026-04-26 07:37 | -26.13351 | 28.23992 | 5557 ft | 2 kts | 315° |
| 2026-04-26 07:38 | -26.13345 | 28.23986 | 5556 ft | 0 kts | 315° |
| 2026-04-26 07:39 | -26.13344 | 28.23985 | 5556 ft | 1 kts | 315° |
| 2026-04-26 07:39 | -26.13323 | 28.23962 | 5554 ft | 10 kts | 315° |
| 2026-04-26 07:39 | -26.13252 | 28.23884 | 5555 ft | 16 kts | 315° |
| 2026-04-26 07:39 | -26.13177 | 28.23803 | 5554 ft | 14 kts | 315° |
| 2026-04-26 07:40 | -26.13112 | 28.23732 | 5552 ft | 12 kts | 318° |
| 2026-04-26 07:40 | -26.13042 | 28.23728 | 5551 ft | 10 kts | 17° |
| 2026-04-26 07:40 | -26.12974 | 28.23750 | 5552 ft | 10 kts | 16° |
| 2026-04-26 07:40 | -26.12907 | 28.23771 | 5550 ft | 10 kts | 15° |
| 2026-04-26 07:41 | -26.12848 | 28.23769 | 5552 ft | 7 kts | 323° |
| 2026-04-26 07:41 | -26.12832 | 28.23717 | 5555 ft | 9 kts | 277° |
| 2026-04-26 07:41 | -26.12824 | 28.23641 | 5550 ft | 11 kts | 277° |
| 2026-04-26 07:41 | -26.12815 | 28.23552 | 5550 ft | 12 kts | 276° |
| 2026-04-26 07:42 | -26.12806 | 28.23457 | 5554 ft | 12 kts | 276° |
| 2026-04-26 07:42 | -26.12798 | 28.23369 | 5554 ft | 11 kts | 276° |
| 2026-04-26 07:42 | -26.12827 | 28.23324 | 5554 ft | 6 kts | 194° |
| 2026-04-26 07:42 | -26.12870 | 28.23318 | 5555 ft | 6 kts | 186° |
| 2026-04-26 07:43 | -26.12882 | 28.23317 | 5550 ft | 0 kts | 186° |
| 2026-04-26 07:43 | -26.12892 | 28.23315 | 5554 ft | 0 kts | 186° |